Data for 06/06/2010

Time Sea-Level Adjusted Pressure Absolute Pressure Temperature Relative Humidity Dew Point Precipitation   
(mb) (inHg) (mb) (inHg) (C) (F) (%) (C) (F) (mm) (in)
00:01 1023 30.21 853 25.19 8.4 47.1 75 4.2 39.5 8.84 0.348
00:02 1023 30.21 853 25.19 8.3 46.9 76 4.4 39.8 8.73 0.344
00:03 1023 30.21 853 25.19 8.1 46.6 76 4.2 39.6 8.56 0.337
00:04 1023 30.21 853 25.19 8 46.4 77 4.2 39.5 8.47 0.333
00:05 1023 30.21 853 25.19 7.9 46.3 77 4.2 39.6 8.38 0.33
00:06 1023 30.21 853 25.19 7.9 46.2 74 3.5 38.3 8.36 0.329
00:07 1023 30.21 853 25.19 8.1 46.6 73 3.6 38.5 8.45 0.333
00:08 1023 30.21 853 25.19 8.2 46.8 76 4.2 39.5 8.59 0.338
00:09 1023 30.21 853 25.19 8.1 46.6 76 4.2 39.6 8.52 0.335
00:10 1023 30.21 853 25.19 8 46.4 75 3.9 39 8.44 0.332
00:11 1023 30.21 853 25.19 8.1 46.5 71 3.2 37.8 8.4 0.331
00:12 1023 30.21 853 25.19 8.3 46.9 69 3 37.3 8.63 0.34
00:13 1023 30.21 853 25.19 8.6 47.4 69 3.3 37.9 8.87 0.349
00:14 1023 30.21 852 25.16 8.6 47.5 71 3.7 38.7 8.96 0.353
00:15 1023 30.21 852 25.16 8.5 47.4 71 3.7 38.6 8.96 0.353
00:16 1023 30.21 852 25.16 8.4 47.2 73 3.9 39.1 8.86 0.349
00:17 1023 30.21 852 25.16 8.4 47.1 74 4 39.3 8.82 0.347
00:18 1023 30.21 853 25.19 8.3 47 75 4.2 39.5 8.73 0.344
00:19 1023 30.21 852 25.16 8.2 46.8 76 4.3 39.7 8.63 0.34
00:20 1023 30.21 853 25.19 8.1 46.6 75 4 39.1 8.54 0.336
00:21 1023 30.21 853 25.19 8.1 46.6 75 3.9 39 8.55 0.337
00:22 1023 30.21 853 25.19 8.1 46.6 74 3.8 38.9 8.54 0.336
00:23 1023 30.21 853 25.19 8.2 46.7 75 4.1 39.4 8.52 0.335
00:24 1023 30.21 853 25.19 8.2 46.7 72 3.4 38.1 8.55 0.337
00:25 1023 30.21 852 25.16 8.4 47.1 72 3.7 38.6 8.73 0.344
00:26 1023 30.21 852 25.16 8.4 47.2 74 4 39.2 8.81 0.347
00:27 1023 30.21 852 25.16 8.3 47 74 4 39.1 8.78 0.346
00:28 1023 30.21 852 25.16 8.4 47.1 73 3.8 38.8 8.74 0.344
00:29 1023 30.21 852 25.16 8.3 47 73 3.8 38.9 8.74 0.344
00:30 1023 30.21 852 25.16 8.3 47 74 4 39.2 8.71 0.343
00:31 1023 30.21 852 25.16 8.2 46.8 75 4 39.2 8.65 0.341
00:32 1023 30.21 852 25.16 8.1 46.7 74 3.8 38.9 8.57 0.337
00:33 1023 30.21 852 25.16 8.2 46.7 74 3.9 38.9 8.55 0.337
00:34 1023 30.21 852 25.16 8.3 46.9 72 3.5 38.3 8.64 0.34
00:35 1023 30.21 853 25.19 8.5 47.2 68 2.8 37.1 8.78 0.346
00:36 1023 30.21 853 25.19 8.8 47.9 67 3.1 37.5 9.11 0.359
00:37 1023 30.21 853 25.19 9 48.1 67 3.1 37.6 9.3 0.366
00:38 1023 30.21 853 25.19 9.1 48.3 69 3.6 38.5 9.39 0.37
00:39 1023 30.21 853 25.19 9 48.1 69 3.7 38.7 9.34 0.368
00:40 1023 30.21 853 25.19 8.9 47.9 68 3.4 38.1 9.27 0.365
00:41 1023 30.21 853 25.19 8.9 47.9 68 3.3 37.9 9.23 0.363
00:42 1023 30.21 853 25.19 8.9 48 69 3.5 38.3 9.27 0.365
00:43 1023 30.21 852 25.16 8.9 48 71 3.8 38.9 9.24 0.364
00:44 1023 30.21 852 25.16 8.7 47.7 71 3.8 38.9 9.17 0.361
00:45 1023 30.21 852 25.16 8.6 47.5 71 3.7 38.6 9 0.354
00:46 1023 30.21 852 25.16 8.6 47.5 71 3.7 38.7 8.96 0.353
00:47 1023 30.21 852 25.16 8.6 47.4 72 3.8 38.9 8.91 0.351
00:48 1023 30.21 852 25.16 8.4 47.2 74 4.1 39.3 8.86 0.349
00:49 1023 30.21 852 25.16 8.3 47 74 4 39.1 8.75 0.344
00:50 1023 30.21 852 25.16 8.2 46.8 75 4 39.3 8.64 0.34
00:51 1023 30.21 852 25.16 8.2 46.7 76 4.2 39.6 8.59 0.338
00:52 1023 30.21 852 25.16 8 46.5 76 4.1 39.4 8.52 0.335
00:53 1023 30.21 853 25.19 8 46.3 77 4.1 39.4 8.43 0.332
00:54 1023 30.21 853 25.19 7.9 46.2 77 4.1 39.3 8.32 0.328
00:55 1023 30.21 853 25.19 7.9 46.1 77 4 39.2 8.29 0.326
00:56 1023 30.21 852 25.16 7.8 46.1 76 3.9 39.1 8.29 0.326
00:57 1023 30.21 852 25.16 7.8 46.1 77 4 39.2 8.23 0.324
00:58 1023 30.21 852 25.16 7.9 46.1 78 4.2 39.6 8.25 0.325
00:59 1023 30.21 853 25.19 7.8 46 78 4.2 39.5 8.19 0.322
01:00 1023 30.21 853 25.19 7.7 45.8 78 4.1 39.4 8.08 0.318
01:01 1023 30.21 853 25.19 7.6 45.7 78 4.1 39.4 8.08 0.318
01:02 1023 30.21 853 25.19 7.7 45.8 79 4.2 39.5 8.04 0.317
01:03 1023 30.21 853 25.19 7.6 45.7 79 4.3 39.7 8.04 0.317
01:04 1024 30.24 853 25.19 7.6 45.7 80 4.3 39.8 8 0.315
01:05 1024 30.24 853 25.19 7.5 45.6 80 4.4 39.8 7.99 0.315
01:06 1024 30.24 853 25.19 7.5 45.5 80 4.3 39.8 7.93 0.312
01:07 1023 30.21 853 25.19 7.5 45.4 80 4.3 39.8 7.85 0.309
01:08 1024 30.24 853 25.19 7.4 45.4 80 4.2 39.5 7.83 0.308
01:09 1023 30.21 853 25.19 7.4 45.3 80 4.2 39.5 7.82 0.308
01:10 1023 30.21 853 25.19 7.4 45.3 80 4.2 39.6 7.78 0.306
01:11 1024 30.24 853 25.19 7.4 45.3 80 4.2 39.6 7.75 0.305
01:12 1023 30.21 853 25.19 7.3 45.1 81 4.2 39.5 7.73 0.304
01:13 1023 30.21 853 25.19 7.3 45.1 80 4.2 39.5 7.69 0.303
01:14 1023 30.21 853 25.19 7.3 45.2 81 4.2 39.6 7.7 0.303
01:15 1023 30.21 853 25.19 7.3 45.1 81 4.2 39.6 7.68 0.302
01:16 1023 30.21 853 25.19 7.3 45.1 81 4.2 39.6 7.64 0.301
01:17 1023 30.21 853 25.19 7.2 45 81 4.2 39.6 7.57 0.298
01:18 1023 30.21 853 25.19 7.2 45 82 4.3 39.7 7.58 0.298
01:19 1023 30.21 853 25.19 7.2 44.9 82 4.3 39.7 7.54 0.297
01:20 1023 30.21 853 25.19 7.1 44.8 82 4.3 39.8 7.51 0.296
01:21 1023 30.21 853 25.19 7.1 44.7 82 4.3 39.7 7.47 0.294
01:22 1023 30.21 853 25.19 7 44.7 82 4.1 39.4 7.48 0.294
01:23 1023 30.21 853 25.19 7.1 44.7 81 4 39.3 7.43 0.293
01:24 1023 30.21 853 25.19 7.1 44.7 81 4 39.2 7.45 0.293
01:25 1023 30.21 853 25.19 7.2 44.9 81 4.1 39.4 7.46 0.294
01:26 1023 30.21 853 25.19 7.2 44.9 80 4 39.2 7.55 0.297
01:27 1023 30.21 853 25.19 7.3 45.2 79 3.9 39 7.66 0.302
01:28 1023 30.21 853 25.19 7.4 45.3 78 3.7 38.7 7.72 0.304
01:29 1023 30.21 853 25.19 7.5 45.5 77 3.8 38.8 7.79 0.307
01:30 1023 30.21 853 25.19 7.7 45.8 76 3.7 38.6 7.9 0.311
01:31 1024 30.24 853 25.19 7.8 46 75 3.6 38.5 8.03 0.316
01:32 1023 30.21 853 25.19 7.9 46.1 74 3.6 38.4 8.13 0.32
01:33 1023 30.21 853 25.19 7.9 46.3 74 3.5 38.3 8.24 0.324
01:34 1023 30.21 853 25.19 8 46.4 74 3.7 38.6 8.25 0.325
01:35 1024 30.24 853 25.19 8 46.3 74 3.7 38.6 8.29 0.326
01:36 1024 30.24 853 25.19 8 46.3 74 3.7 38.6 8.31 0.327
01:37 1024 30.24 853 25.19 8 46.3 75 3.9 39 8.28 0.326
01:38 1024 30.24 853 25.19 7.9 46.1 75 3.8 38.8 8.24 0.324
01:39 1024 30.24 853 25.19 7.8 46.1 75 3.7 38.6 8.25 0.325
01:40 1024 30.24 853 25.19 7.9 46.1 75 3.7 38.6 8.21 0.323
01:41 1024 30.24 853 25.19 7.9 46.2 73 3.4 38.1 8.26 0.325
01:42 1024 30.24 853 25.19 8 46.4 73 3.5 38.2 8.31 0.327
01:43 1024 30.24 853 25.19 8.1 46.7 72 3.3 38 8.4 0.331
01:44 1024 30.24 853 25.19 8.2 46.8 71 3.3 37.9 8.54 0.336
01:45 1024 30.24 853 25.19 8.4 47 71 3.4 38.1 8.61 0.339
01:46 1024 30.24 853 25.19 8.4 47.1 71 3.5 38.3 8.69 0.342
01:47 1024 30.24 853 25.19 8.4 47.2 72 3.7 38.6 8.71 0.343
01:48 1024 30.24 853 25.19 8.3 47 72 3.7 38.6 8.71 0.343
01:49 1024 30.24 853 25.19 8.3 47 73 3.9 38.9 8.66 0.341
01:50 1024 30.24 853 25.19 8.2 46.8 74 3.9 39 8.63 0.34
01:51 1024 30.24 853 25.19 8.2 46.8 74 3.8 38.9 8.6 0.339
01:52 1024 30.24 853 25.19 8.2 46.7 74 3.9 38.9 8.57 0.337
01:53 1024 30.24 853 25.19 8.1 46.6 75 3.9 39 8.53 0.336
01:54 1024 30.24 853 25.19 8.1 46.6 76 4.1 39.3 8.5 0.335
01:55 1024 30.24 853 25.19 8 46.4 77 4.2 39.5 8.47 0.333
01:56 1024 30.24 853 25.19 8 46.3 76 4.1 39.3 8.4 0.331
01:57 1024 30.24 853 25.19 7.9 46.2 77 4.1 39.3 8.33 0.328
01:58 1024 30.24 853 25.19 7.9 46.2 77 4.1 39.3 8.28 0.326
01:59 1024 30.24 853 25.19 7.9 46.2 76 4 39.2 8.29 0.326
02:00 1024 30.24 853 25.19 7.9 46.2 77 4.1 39.4 8.29 0.326
02:01 1024 30.24 853 25.19 7.9 46.2 78 4.3 39.7 8.29 0.326
02:02 1024 30.24 853 25.19 7.8 46 79 4.4 39.8 8.22 0.324
02:03 1024 30.24 853 25.19 7.7 45.9 79 4.3 39.8 8.18 0.322
02:04 1024 30.24 853 25.19 7.7 45.8 79 4.3 39.7 8.13 0.32
02:05 1024 30.24 853 25.19 7.7 45.9 79 4.3 39.8 8.09 0.319
02:06 1024 30.24 853 25.19 7.7 45.8 80 4.4 39.9 8.07 0.318
02:07 1024 30.24 853 25.19 7.7 45.8 79 4.3 39.7 8.04 0.317
02:08 1024 30.24 853 25.19 7.6 45.7 79 4.2 39.6 8.02 0.316
02:09 1024 30.24 853 25.19 7.7 45.8 79 4.2 39.6 8.05 0.317
02:10 1024 30.24 853 25.19 7.6 45.8 79 4.2 39.5 8.03 0.316
02:11 1024 30.24 853 25.19 7.7 45.8 79 4.3 39.7 8.05 0.317
02:12 1024 30.24 853 25.19 7.6 45.7 79 4.3 39.7 8.04 0.317
02:13 1024 30.24 853 25.19 7.6 45.7 79 4.2 39.5 8.03 0.316
02:14 1024 30.24 853 25.19 7.7 45.8 78 4 39.3 8.06 0.317
02:15 1024 30.24 853 25.19 7.8 46 78 4.2 39.6 8.12 0.32
02:16 1024 30.24 853 25.19 7.8 46 78 4.1 39.5 8.13 0.32
02:17 1024 30.24 853 25.19 7.8 46 76 3.9 39 8.14 0.32
02:18 1024 30.24 853 25.19 7.9 46.1 75 3.8 38.8 8.22 0.324
02:19 1024 30.24 853 25.19 8 46.4 76 4.1 39.3 8.29 0.326
02:20 1024 30.24 853 25.19 8 46.3 76 4.1 39.3 8.3 0.327
02:21 1024 30.24 853 25.19 7.9 46.2 77 4.2 39.5 8.29 0.326
02:22 1024 30.24 853 25.19 7.9 46.1 76 3.9 39 8.24 0.324
02:23 1024 30.24 853 25.19 8 46.4 74 3.7 38.7 8.33 0.328
02:24 1024 30.24 853 25.19 8 46.5 75 3.8 38.9 8.44 0.332
02:25 1024 30.24 853 25.19 8.1 46.6 76 4.1 39.3 8.44 0.332
02:26 1024 30.24 853 25.19 8 46.4 76 4.1 39.4 8.43 0.332
02:27 1024 30.24 853 25.19 8 46.4 76 4 39.2 8.41 0.331
02:28 1024 30.24 853 25.19 8 46.4 76 4 39.2 8.35 0.329
02:29 1024 30.24 853 25.19 8 46.4 76 4.1 39.3 8.34 0.328
02:30 1024 30.24 853 25.19 8 46.4 76 4 39.2 8.38 0.33
02:31 1024 30.24 853 25.19 8 46.4 76 4 39.2 8.37 0.33
02:32 1024 30.24 853 25.19 8 46.4 75 3.9 38.9 8.39 0.33
02:33 1024 30.24 853 25.19 8 46.5 75 3.9 39.1 8.43 0.332
02:34 1024 30.24 853 25.19 8 46.4 75 3.9 39 8.4 0.331
02:35 1024 30.24 853 25.19 8 46.5 75 3.9 39 8.41 0.331
02:36 1024 30.24 853 25.19 8.1 46.5 75 4 39.2 8.42 0.331
02:37 1024 30.24 853 25.19 8 46.4 76 4.1 39.3 8.42 0.331
02:38 1024 30.24 853 25.19 8 46.3 77 4.1 39.4 8.36 0.329
02:39 1024 30.24 853 25.19 7.9 46.2 78 4.2 39.6 8.29 0.326
02:40 1024 30.24 853 25.19 7.9 46.1 76 3.9 39.1 8.26 0.325
02:41 1024 30.24 853 25.19 7.9 46.2 76 4 39.1 8.24 0.324
02:42 1024 30.24 853 25.19 7.9 46.2 76 4 39.2 8.28 0.326
02:43 1024 30.24 853 25.19 7.9 46.3 76 3.9 39 8.32 0.328
02:44 1024 30.24 853 25.19 7.9 46.3 75 3.7 38.7 8.33 0.328
02:45 1024 30.24 853 25.19 8.1 46.6 74 3.7 38.7 8.42 0.331
02:46 1024 30.24 853 25.19 8.2 46.7 74 3.8 38.9 8.51 0.335
02:47 1024 30.24 853 25.19 8.2 46.8 73 3.6 38.5 8.56 0.337
02:48 1024 30.24 853 25.19 8.2 46.8 74 3.8 38.8 8.59 0.338
02:49 1024 30.24 853 25.19 8.3 46.9 71 3.4 38.2 8.6 0.339
02:50 1024 30.24 853 25.19 8.4 47 69 3 37.3 8.7 0.343
02:51 1024 30.24 853 25.19 8.5 47.3 71 3.5 38.3 8.78 0.346
02:52 1024 30.24 853 25.19 8.5 47.4 69 3.1 37.6 8.86 0.349
02:53 1024 30.24 853 25.19 8.6 47.6 69 3.4 38.1 8.94 0.352
02:54 1024 30.24 853 25.19 8.7 47.6 68 3.2 37.7 8.95 0.352
02:55 1024 30.24 853 25.19 8.8 47.8 66 2.7 36.9 9.04 0.356
02:56 1024 30.24 853 25.19 8.9 48 62 2 35.6 9.2 0.362
02:57 1024 30.24 853 25.19 9.1 48.4 63 2.5 36.5 9.34 0.368
02:58 1024 30.24 853 25.19 9.3 48.7 59 1.7 35 9.51 0.374
02:59 1024 30.24 853 25.19 9.4 48.9 60 2 35.6 9.65 0.38
03:00 1024 30.24 853 25.19 9.5 49.1 60 2.2 35.9 9.79 0.385
03:01 1024 30.24 853 25.19 9.5 49.2 60 2.2 36 9.81 0.386
03:02 1024 30.24 853 25.19 9.5 49.1 60 2.2 36 9.8 0.386
03:03 1024 30.24 853 25.19 9.5 49 62 2.7 36.9 9.83 0.387
03:04 1024 30.24 853 25.19 9.4 49 60 2 35.6 9.76 0.384
03:05 1024 30.24 853 25.19 9.5 49 61 2.3 36.2 9.76 0.384
03:06 1024 30.24 853 25.19 9.5 49 61 2.4 36.2 9.77 0.385
03:07 1023 30.21 853 25.19 9.5 49 60 2.2 36 9.73 0.383
03:08 1023 30.21 853 25.19 9.4 48.9 61 2.3 36.1 9.76 0.384
03:09 1023 30.21 853 25.19 9.4 49 62 2.5 36.5 9.7 0.382
03:10 1023 30.21 853 25.19 9.4 49 63 2.7 36.8 9.68 0.381
03:11 1023 30.21 853 25.19 9.3 48.8 63 2.7 36.8 9.67 0.381
03:12 1023 30.21 853 25.19 9.2 48.6 64 2.7 36.9 9.58 0.377
03:13 1023 30.21 853 25.19 9.1 48.4 65 2.9 37.2 9.51 0.374
03:14 1023 30.21 853 25.19 9 48.3 66 3 37.3 9.46 0.372
03:15 1023 30.21 853 25.19 8.9 48.1 66 2.9 37.3 9.35 0.368
03:16 1024 30.24 853 25.19 8.8 47.9 68 3.3 37.9 9.26 0.365
03:17 1024 30.24 853 25.19 8.6 47.6 71 3.7 38.6 9.11 0.359
03:18 1024 30.24 853 25.19 8.4 47.1 73 3.9 38.9 8.91 0.351
03:19 1024 30.24 853 25.19 8.2 46.8 74 3.9 39 8.69 0.342
03:20 1023 30.21 853 25.19 8.1 46.5 75 4 39.1 8.55 0.337
03:21 1023 30.21 853 25.19 8 46.3 75 3.8 38.9 8.43 0.332
03:22 1023 30.21 853 25.19 8 46.3 76 4 39.2 8.4 0.331
03:23 1023 30.21 853 25.19 7.9 46.2 75 3.7 38.7 8.33 0.328
03:24 1023 30.21 853 25.19 7.9 46.2 74 3.6 38.6 8.33 0.328
03:25 1023 30.21 853 25.19 7.9 46.2 74 3.6 38.5 8.3 0.327
03:26 1023 30.21 853 25.19 8 46.3 74 3.6 38.4 8.3 0.327
03:27 1023 30.21 853 25.19 8 46.4 73 3.4 38.2 8.38 0.33
03:28 1023 30.21 853 25.19 8.1 46.5 73 3.5 38.3 8.41 0.331
03:29 1023 30.21 853 25.19 8.1 46.6 72 3.4 38.1 8.46 0.333
03:30 1023 30.21 853 25.19 8.2 46.7 71 3.3 37.9 8.53 0.336
03:31 1023 30.21 853 25.19 8.2 46.8 72 3.4 38.2 8.61 0.339
03:32 1023 30.21 852 25.16 8.3 46.9 71 3.3 37.9 8.66 0.341
03:33 1023 30.21 852 25.16 8.3 47 70 3.3 37.9 8.71 0.343
03:34 1023 30.21 852 25.16 8.4 47.1 70 3.3 37.9 8.71 0.343
03:35 1023 30.21 853 25.19 8.4 47.1 70 3.3 38 8.73 0.344
03:36 1023 30.21 853 25.19 8.4 47.1 71 3.4 38.2 8.72 0.343
03:37 1023 30.21 853 25.19 8.4 47 70 3.3 38 8.73 0.344
03:38 1023 30.21 852 25.16 8.4 47.1 71 3.4 38.1 8.76 0.345
03:39 1023 30.21 852 25.16 8.4 47.2 71 3.5 38.3 8.82 0.347
03:40 1023 30.21 852 25.16 8.5 47.2 70 3.3 38 8.82 0.347
03:41 1023 30.21 852 25.16 8.5 47.2 71 3.5 38.3 8.83 0.348
03:42 1023 30.21 852 25.16 8.5 47.2 71 3.6 38.5 8.85 0.348
03:43 1023 30.21 852 25.16 8.4 47.1 72 3.7 38.6 8.79 0.346
03:44 1023 30.21 852 25.16 8.3 47 72 3.6 38.5 8.69 0.342
03:45 1023 30.21 852 25.16 8.3 46.9 71 3.3 38 8.68 0.342
03:46 1023 30.21 852 25.16 8.4 47.1 69 3 37.4 8.73 0.344
03:47 1023 30.21 852 25.16 8.5 47.3 68 2.9 37.2 8.83 0.348
03:48 1023 30.21 852 25.16 8.6 47.5 69 3.2 37.8 8.93 0.352
03:49 1023 30.21 852 25.16 8.6 47.5 68 3 37.4 8.94 0.352
03:50 1023 30.21 852 25.16 8.6 47.5 66 2.7 36.8 8.97 0.353
03:51 1023 30.21 852 25.16 8.7 47.7 66 2.8 37 9.03 0.356
03:52 1023 30.21 852 25.16 8.8 47.8 64 2.4 36.4 9.1 0.358
03:53 1023 30.21 852 25.16 8.9 47.9 64 2.5 36.4 9.19 0.362
03:54 1023 30.21 852 25.16 8.9 48.1 63 2.3 36.2 9.27 0.365
03:55 1023 30.21 852 25.16 9 48.3 64 2.6 36.7 9.34 0.368
03:56 1023 30.21 852 25.16 9 48.2 65 2.9 37.2 9.37 0.369
03:57 1023 30.21 852 25.16 8.9 48.1 65 2.8 37.1 9.28 0.365
03:58 1023 30.21 852 25.16 8.9 48 66 2.8 37.1 9.24 0.364
03:59 1023 30.21 852 25.16 9 48.1 66 3 37.4 9.26 0.365
04:00 1023 30.21 852 25.16 8.9 47.9 67 3.2 37.7 9.29 0.366
04:01 1023 30.21 852 25.16 8.7 47.7 66 2.9 37.2 9.16 0.361
04:02 1023 30.21 852 25.16 8.7 47.6 66 2.7 36.8 9.06 0.357
04:03 1023 30.21 852 25.16 8.7 47.7 64 2.4 36.3 9.08 0.357
04:04 1023 30.21 852 25.16 8.9 47.9 63 2.3 36.1 9.2 0.362
04:05 1023 30.21 852 25.16 9 48.1 64 2.5 36.5 9.31 0.367
04:06 1023 30.21 852 25.16 9 48.1 62 2.2 35.9 9.33 0.367
04:07 1023 30.21 852 25.16 9 48.1 65 2.7 36.8 9.31 0.367
04:08 1023 30.21 852 25.16 9 48.1 62 2 35.7 9.32 0.367
04:09 1023 30.21 852 25.16 9 48.3 63 2.4 36.4 9.38 0.369
04:10 1023 30.21 852 25.16 9.1 48.3 63 2.5 36.5 9.4 0.37
04:11 1023 30.21 852 25.16 9 48.2 64 2.5 36.5 9.39 0.37
04:12 1023 30.21 852 25.16 9 48.1 63 2.3 36.2 9.32 0.367
04:13 1023 30.21 852 25.16 9 48.1 61 2 35.5 9.32 0.367
04:14 1023 30.21 852 25.16 9 48.2 63 2.3 36.1 9.38 0.369
04:15 1023 30.21 852 25.16 9 48.2 63 2.3 36.2 9.43 0.371
04:16 1023 30.21 852 25.16 9.1 48.3 62 2.2 36 9.45 0.372
04:17 1023 30.21 852 25.16 9.1 48.4 60 1.7 35.1 9.43 0.371
04:18 1023 30.21 852 25.16 9.2 48.6 61 2.1 35.8 9.54 0.376
04:19 1023 30.21 852 25.16 9.2 48.6 61 2.1 35.7 9.55 0.376
04:20 1023 30.21 852 25.16 9.2 48.6 62 2.3 36.1 9.58 0.377
04:21 1023 30.21 852 25.16 9.1 48.5 61 2 35.7 9.52 0.375
04:22 1023 30.21 852 25.16 9.2 48.5 60 1.9 35.5 9.54 0.376
04:23 1023 30.21 852 25.16 9.2 48.5 60 2 35.5 9.57 0.377
04:24 1023 30.21 852 25.16 9.2 48.6 60 2 35.5 9.58 0.377
04:25 1023 30.21 852 25.16 9.2 48.6 60 1.9 35.4 9.57 0.377
04:26 1023 30.21 852 25.16 9.3 48.7 60 1.8 35.3 9.6 0.378
04:27 1023 30.21 852 25.16 9.3 48.7 60 1.9 35.5 9.63 0.379
04:28 1023 30.21 852 25.16 9.2 48.6 59 1.7 35 9.61 0.378
04:29 1023 30.21 852 25.16 9.3 48.7 60 2 35.6 9.62 0.379
04:30 1023 30.21 852 25.16 9.2 48.6 61 2 35.6 9.6 0.378
04:31 1023 30.21 852 25.16 9.2 48.5 61 2.1 35.8 9.55 0.376
04:32 1023 30.21 852 25.16 9.2 48.5 62 2.3 36.2 9.51 0.374
04:33 1023 30.21 852 25.16 9.1 48.4 60 1.9 35.3 9.49 0.374
04:34 1023 30.21 852 25.16 9.2 48.5 61 2.1 35.8 9.54 0.376
04:35 1023 30.21 852 25.16 9.2 48.5 61 2 35.7 9.55 0.376
04:36 1023 30.21 852 25.16 9.2 48.5 61 2 35.6 9.52 0.375
04:37 1023 30.21 852 25.16 9.1 48.4 61 2 35.5 9.49 0.374
04:38 1023 30.21 852 25.16 9.2 48.5 61 2.2 35.9 9.52 0.375
04:39 1023 30.21 852 25.16 9.2 48.5 59 1.6 34.9 9.56 0.376
04:40 1023 30.21 852 25.16 9.4 48.8 57 1.3 34.4 9.69 0.381
04:41 1023 30.21 852 25.16 9.5 49 58 1.7 35 9.81 0.386
04:42 1023 30.21 852 25.16 9.5 49 60 2.1 35.8 9.82 0.387
04:43 1023 30.21 852 25.16 9.4 49 56 1.2 34.1 9.81 0.386
04:44 1023 30.21 852 25.16 9.5 49.1 55 0.9 33.7 9.88 0.389
04:45 1023 30.21 852 25.16 9.7 49.5 55 1.1 34.1 10.12 0.398
04:46 1023 30.21 852 25.16 9.8 49.7 56 1.4 34.6 10.15 0.4
04:47 1023 30.21 852 25.16 9.8 49.6 58 1.9 35.3 10.17 0.4
04:48 1023 30.21 852 25.16 9.7 49.4 62 2.8 37.1 10.08 0.397
04:49 1023 30.21 852 25.16 9.5 49 65 3.2 37.8 9.89 0.389
04:50 1023 30.21 852 25.16 9.2 48.5 66 3.2 37.7 9.66 0.38
04:51 1023 30.21 852 25.16 9 48.1 67 3.1 37.7 9.45 0.372
04:52 1023 30.21 852 25.16 8.9 47.9 68 3.3 38 9.31 0.367
04:53 1023 30.21 852 25.16 8.8 47.8 67 3.1 37.5 9.2 0.362
04:54 1023 30.21 852 25.16 8.7 47.6 67 3 37.4 9.12 0.359
04:55 1023 30.21 852 25.16 8.7 47.6 67 2.8 37.1 9.09 0.358
04:56 1023 30.21 852 25.16 8.7 47.6 67 3 37.4 9.07 0.357
04:57 1023 30.21 852 25.16 8.7 47.6 68 3 37.4 9.07 0.357
04:58 1023 30.21 852 25.16 8.6 47.6 66 2.7 36.9 9.08 0.357
04:59 1023 30.21 852 25.16 8.7 47.7 66 2.7 36.9 9.13 0.359
05:00 1023 30.21 852 25.16 8.8 47.8 67 3 37.3 9.14 0.36
05:01 1023 30.21 852 25.16 8.8 47.8 66 2.7 36.9 9.17 0.361
05:02 1023 30.21 852 25.16 8.8 47.9 64 2.4 36.4 9.18 0.361
05:03 1023 30.21 852 25.16 8.9 48 64 2.5 36.5 9.26 0.365
05:04 1023 30.21 852 25.16 9 48.2 63 2.4 36.3 9.3 0.366
05:05 1023 30.21 852 25.16 9.1 48.3 65 2.8 37 9.42 0.371
05:06 1023 30.21 852 25.16 9 48.3 64 2.6 36.7 9.42 0.371
05:07 1023 30.21 852 25.16 9 48.2 64 2.6 36.7 9.41 0.37
05:08 1023 30.21 852 25.16 9 48.3 65 2.7 36.9 9.42 0.371
05:09 1023 30.21 852 25.16 9 48.3 64 2.6 36.6 9.42 0.371
05:10 1023 30.21 852 25.16 9.1 48.3 63 2.4 36.3 9.42 0.371
05:11 1023 30.21 852 25.16 9 48.3 65 2.9 37.2 9.41 0.37
05:12 1023 30.21 852 25.16 9 48.1 70 3.8 38.9 9.37 0.369
05:13 1023 30.21 852 25.16 8.7 47.7 73 4.2 39.5 9.19 0.362
05:14 1023 30.21 852 25.16 8.5 47.2 75 4.4 39.8 8.98 0.354
05:15 1023 30.21 852 25.16 8.3 46.9 76 4.4 39.9 8.77 0.345
05:16 1023 30.21 852 25.16 8.1 46.6 77 4.3 39.8 8.61 0.339
05:17 1023 30.21 852 25.16 8 46.4 78 4.4 39.8 8.54 0.336
05:18 1023 30.21 852 25.16 8 46.3 79 4.5 40.1 8.44 0.332
05:19 1023 30.21 852 25.16 7.9 46.2 79 4.5 40 8.34 0.328
05:20 1023 30.21 852 25.16 7.8 46.1 80 4.6 40.2 8.3 0.327
05:21 1023 30.21 852 25.16 7.8 46.1 80 4.6 40.3 8.25 0.325
05:22 1023 30.21 852 25.16 7.7 45.9 80 4.5 40.1 8.22 0.324
05:23 1023 30.21 852 25.16 7.7 45.9 81 4.6 40.2 8.14 0.32
05:24 1023 30.21 852 25.16 7.7 45.9 82 4.8 40.6 8.17 0.322
05:25 1023 30.21 852 25.16 7.7 45.8 81 4.6 40.3 8.11 0.319
05:26 1023 30.21 852 25.16 7.7 45.8 82 4.8 40.6 8.09 0.319
05:27 1023 30.21 852 25.16 7.6 45.6 82 4.7 40.4 8.05 0.317
05:28 1023 30.21 852 25.16 7.6 45.7 82 4.7 40.5 8 0.315
05:29 1023 30.21 852 25.16 7.6 45.6 81 4.6 40.3 7.99 0.315
05:30 1023 30.21 852 25.16 7.6 45.6 81 4.4 40 8.01 0.315
05:31 1023 30.21 852 25.16 7.6 45.7 80 4.4 40 8.01 0.315
05:32 1023 30.21 852 25.16 7.6 45.8 80 4.4 40 7.98 0.314
05:33 1023 30.21 853 25.19 7.7 45.8 81 4.6 40.2 8.05 0.317
05:34 1023 30.21 852 25.16 7.7 45.8 81 4.7 40.4 8.08 0.318
05:35 1023 30.21 852 25.16 7.6 45.7 81 4.6 40.3 8.02 0.316
05:36 1023 30.21 853 25.19 7.6 45.7 82 4.8 40.6 8.01 0.315
05:37 1023 30.21 853 25.19 7.6 45.7 82 4.7 40.5 8 0.315
05:38 1023 30.21 853 25.19 7.6 45.6 82 4.7 40.4 7.99 0.315
05:39 1023 30.21 853 25.19 7.6 45.6 81 4.6 40.3 8.01 0.315
05:40 1023 30.21 853 25.19 7.6 45.7 81 4.6 40.3 8 0.315
05:41 1023 30.21 853 25.19 7.6 45.7 81 4.6 40.3 8.04 0.317
05:42 1023 30.21 853 25.19 7.7 45.8 81 4.7 40.4 8.03 0.316
05:43 1023 30.21 853 25.19 7.7 45.8 82 4.7 40.5 8.05 0.317
05:44 1023 30.21 853 25.19 7.7 45.8 82 4.7 40.5 8.08 0.318
05:45 1023 30.21 853 25.19 7.6 45.8 81 4.7 40.4 8 0.315
05:46 1023 30.21 853 25.19 7.7 45.8 80 4.5 40 8 0.315
05:47 1023 30.21 853 25.19 7.7 45.9 80 4.4 40 8.05 0.317
05:48 1023 30.21 853 25.19 7.8 46 80 4.6 40.2 8.13 0.32
05:49 1023 30.21 853 25.19 7.8 46 80 4.6 40.2 8.16 0.321
05:50 1023 30.21 853 25.19 7.8 46 79 4.4 39.9 8.13 0.32
05:51 1023 30.21 853 25.19 7.9 46.2 80 4.6 40.2 8.18 0.322
05:52 1023 30.21 853 25.19 7.9 46.1 80 4.6 40.3 8.24 0.324
05:53 1023 30.21 853 25.19 7.8 46.1 81 4.7 40.5 8.23 0.324
05:54 1023 30.21 853 25.19 7.8 46.1 81 4.8 40.7 8.2 0.323
05:55 1023 30.21 853 25.19 7.8 46 81 4.8 40.7 8.2 0.323
05:56 1023 30.21 853 25.19 7.7 45.9 81 4.8 40.6 8.13 0.32
05:57 1023 30.21 853 25.19 7.7 45.9 81 4.6 40.3 8.13 0.32
05:58 1023 30.21 853 25.19 7.8 46 81 4.7 40.4 8.13 0.32
05:59 1023 30.21 853 25.19 7.8 46 81 4.7 40.5 8.19 0.322
06:00 1023 30.21 853 25.19 7.8 46.1 81 4.8 40.6 8.2 0.323
06:01 1023 30.21 853 25.19 7.8 46 82 4.9 40.8 8.2 0.323
06:02 1023 30.21 853 25.19 7.8 46 82 4.9 40.8 8.18 0.322
06:03 1023 30.21 853 25.19 7.7 45.9 82 4.8 40.7 8.12 0.32
06:04 1023 30.21 853 25.19 7.7 45.9 81 4.7 40.5 8.16 0.321
06:05 1023 30.21 853 25.19 7.8 46.1 79 4.4 39.9 8.18 0.322
06:06 1023 30.21 853 25.19 7.9 46.2 80 4.6 40.4 8.22 0.324
06:07 1023 30.21 853 25.19 7.9 46.3 80 4.7 40.4 8.26 0.325
06:08 1024 30.24 853 25.19 7.9 46.3 80 4.7 40.5 8.25 0.325
06:09 1024 30.24 853 25.19 7.9 46.3 78 4.3 39.7 8.31 0.327
06:10 1023 30.21 853 25.19 8.1 46.5 75 4 39.2 8.31 0.327
06:11 1023 30.21 853 25.19 8.2 46.7 74 3.9 39 8.37 0.33
06:12 1023 30.21 853 25.19 8.3 46.9 76 4.4 39.9 8.51 0.335
06:13 1023 30.21 853 25.19 8.3 46.9 77 4.5 40.2 8.54 0.336
06:14 1023 30.21 853 25.19 8.3 46.9 78 4.7 40.5 8.56 0.337
06:15 1023 30.21 853 25.19 8.2 46.8 78 4.7 40.5 8.57 0.337
06:16 1023 30.21 853 25.19 8.2 46.8 79 4.7 40.5 8.56 0.337
06:17 1023 30.21 853 25.19 8.2 46.8 78 4.7 40.4 8.53 0.336
06:18 1023 30.21 853 25.19 8.2 46.7 79 4.7 40.5 8.52 0.335
06:19 1023 30.21 853 25.19 8.2 46.7 79 4.7 40.5 8.52 0.335
06:20 1023 30.21 853 25.19 8.2 46.7 79 4.8 40.6 8.52 0.335
06:21 1023 30.21 853 25.19 8.2 46.7 80 4.9 40.8 8.51 0.335
06:22 1023 30.21 853 25.19 8.2 46.7 81 5.1 41.2 8.55 0.337
06:23 1023 30.21 853 25.19 8.1 46.7 82 5.2 41.4 8.55 0.337
06:24 1023 30.21 853 25.19 8.1 46.6 83 5.3 41.6 8.52 0.335
06:25 1023 30.21 853 25.19 8.1 46.6 83 5.4 41.8 8.5 0.335
06:26 1024 30.24 853 25.19 8.1 46.5 84 5.5 41.9 8.48 0.334
06:27 1024 30.24 853 25.19 8 46.5 83 5.4 41.7 8.45 0.333
06:28 1024 30.24 853 25.19 8 46.4 82 5.1 41.1 8.43 0.332
06:29 1024 30.24 853 25.19 8 46.4 83 5.3 41.5 8.4 0.331
06:30 1024 30.24 853 25.19 8 46.4 81 4.9 40.9 8.38 0.33
06:31 1024 30.24 853 25.19 8.1 46.5 82 5.1 41.2 8.42 0.331
06:32 1024 30.24 853 25.19 8.1 46.5 83 5.3 41.5 8.46 0.333
06:33 1024 30.24 853 25.19 8.1 46.5 83 5.4 41.7 8.48 0.334
06:34 1024 30.24 853 25.19 8.1 46.5 82 5.3 41.5 8.45 0.333
06:35 1024 30.24 853 25.19 8 46.5 82 5.1 41.2 8.42 0.331
06:36 1024 30.24 853 25.19 8.1 46.5 82 5.1 41.2 8.39 0.33
06:37 1024 30.24 853 25.19 8.1 46.5 82 5.1 41.2 8.48 0.334
06:38 1024 30.24 853 25.19 8.1 46.5 81 5 41.1 8.45 0.333
06:39 1024 30.24 853 25.19 8.1 46.6 80 4.9 40.9 8.46 0.333
06:40 1024 30.24 853 25.19 8.1 46.7 82 5.3 41.6 8.48 0.334
06:41 1024 30.24 853 25.19 8.1 46.6 81 5 41 8.44 0.332
06:42 1024 30.24 853 25.19 8.2 46.7 82 5.3 41.5 8.52 0.335
06:43 1024 30.24 853 25.19 8.2 46.8 82 5.3 41.6 8.54 0.336
06:44 1024 30.24 853 25.19 8.2 46.7 81 5.2 41.3 8.51 0.335
06:45 1024 30.24 853 25.19 8.2 46.7 82 5.2 41.4 8.5 0.335
06:46 1024 30.24 853 25.19 8.2 46.8 81 5.2 41.4 8.51 0.335
06:47 1024 30.24 853 25.19 8.2 46.7 81 5.1 41.2 8.51 0.335
06:48 1024 30.24 853 25.19 8.2 46.8 81 5.1 41.2 8.52 0.335
06:49 1024 30.24 853 25.19 8.2 46.8 82 5.3 41.6 8.59 0.338
06:50 1024 30.24 853 25.19 8.2 46.8 81 5.1 41.2 8.57 0.337
06:51 1024 30.24 853 25.19 8.3 46.9 80 5.1 41.1 8.6 0.339
06:52 1024 30.24 853 25.19 8.2 46.8 81 5.1 41.2 8.63 0.34
06:53 1024 30.24 853 25.19 8.2 46.8 80 5 41 8.63 0.34
06:54 1024 30.24 853 25.19 8.3 46.9 80 5.1 41.2 8.64 0.34
06:55 1024 30.24 853 25.19 8.3 46.9 80 5.1 41.1 8.65 0.341
06:56 1024 30.24 853 25.19 8.3 46.9 80 5 41 8.65 0.341
06:57 1024 30.24 853 25.19 8.3 47 81 5.3 41.5 8.69 0.342
06:58 1024 30.24 853 25.19 8.3 47 82 5.4 41.7 8.69 0.342
06:59 1024 30.24 853 25.19 8.3 46.9 83 5.6 42.1 8.69 0.342
07:00 1023 30.21 853 25.19 8.2 46.8 84 5.7 42.2 8.68 0.342
07:01 1023 30.21 853 25.19 8.2 46.8 84 5.7 42.2 8.64 0.34
07:02 1023 30.21 853 25.19 8.2 46.7 85 5.7 42.3 8.63 0.34
07:03 1023 30.21 853 25.19 8.2 46.7 84 5.6 42.1 8.59 0.338
07:04 1024 30.24 853 25.19 8.2 46.7 84 5.6 42 8.59 0.338
07:05 1023 30.21 853 25.19 8.2 46.8 84 5.6 42.1 8.63 0.34
07:06 1024 30.24 853 25.19 8.2 46.8 84 5.6 42.1 8.64 0.34
07:07 1023 30.21 853 25.19 8.2 46.8 83 5.5 41.8 8.63 0.34
07:08 1023 30.21 853 25.19 8.3 47 82 5.4 41.7 8.65 0.341
07:09 1023 30.21 853 25.19 8.4 47 81 5.2 41.4 8.69 0.342
07:10 1023 30.21 853 25.19 8.4 47.2 80 5.2 41.4 8.75 0.344
07:11 1023 30.21 853 25.19 8.5 47.2 78 4.9 40.9 8.8 0.346
07:12 1024 30.24 853 25.19 8.5 47.4 79 5.1 41.1 8.85 0.348
07:13 1024 30.24 853 25.19 8.6 47.5 79 5.2 41.3 8.9 0.35
07:14 1024 30.24 853 25.19 8.7 47.6 76 4.6 40.3 8.96 0.353
07:15 1024 30.24 853 25.19 8.7 47.7 78 5.1 41.1 8.99 0.354
07:16 1024 30.24 853 25.19 8.7 47.7 73 4.2 39.5 9.04 0.356
07:17 1024 30.24 853 25.19 8.8 47.9 75 4.6 40.3 9.13 0.359
07:18 1024 30.24 853 25.19 8.9 47.9 75 4.8 40.6 9.16 0.361
07:19 1023 30.21 853 25.19 8.9 47.9 72 4 39.2 9.2 0.362
07:20 1023 30.21 853 25.19 8.9 48 75 4.7 40.5 9.25 0.364
07:21 1023 30.21 853 25.19 8.9 48 73 4.3 39.7 9.26 0.365
07:22 1023 30.21 853 25.19 8.9 48 72 4.1 39.4 9.28 0.365
07:23 1023 30.21 853 25.19 9 48.2 72 4.2 39.6 9.32 0.367
07:24 1023 30.21 853 25.19 9 48.2 72 4.2 39.5 9.34 0.368
07:25 1023 30.21 853 25.19 9.1 48.3 70 3.9 39 9.4 0.37
07:26 1023 30.21 853 25.19 9.1 48.4 71 4.1 39.3 9.47 0.373
07:27 1023 30.21 853 25.19 9.1 48.4 72 4.3 39.8 9.5 0.374
07:28 1024 30.24 853 25.19 9.1 48.3 74 4.7 40.4 9.47 0.373
07:29 1024 30.24 853 25.19 9 48.2 76 5 41 9.43 0.371
07:30 1024 30.24 853 25.19 9 48.1 78 5.3 41.6 9.4 0.37
07:31 1024 30.24 853 25.19 8.9 48 80 5.6 42.1 9.34 0.368
07:32 1024 30.24 853 25.19 8.8 47.8 81 5.7 42.2 9.28 0.365
07:33 1024 30.24 853 25.19 8.7 47.7 82 5.8 42.4 9.19 0.362
07:34 1024 30.24 853 25.19 8.7 47.6 83 6 42.7 9.16 0.361
07:35 1024 30.24 853 25.19 8.7 47.6 82 5.8 42.5 9.14 0.36
07:36 1024 30.24 853 25.19 8.6 47.6 82 5.7 42.2 9.12 0.359
07:37 1024 30.24 853 25.19 8.7 47.7 82 5.8 42.5 9.11 0.359
07:38 1024 30.24 853 25.19 8.7 47.6 81 5.6 42.1 9.13 0.359
07:39 1024 30.24 853 25.19 8.8 47.8 81 5.6 42.2 9.2 0.362
07:40 1024 30.24 853 25.19 8.8 47.8 81 5.7 42.2 9.2 0.362
07:41 1024 30.24 853 25.19 8.8 47.9 74 4.5 40.1 9.21 0.363
07:42 1024 30.24 853 25.19 9 48.1 74 4.5 40.1 9.29 0.366
07:43 1024 30.24 853 25.19 9.1 48.4 69 3.8 38.8 9.42 0.371
07:44 1024 30.24 853 25.19 9.3 48.7 71 4.4 39.9 9.56 0.376
07:45 1024 30.24 853 25.19 9.3 48.8 73 4.7 40.4 9.65 0.38
07:46 1024 30.24 853 25.19 9.3 48.8 73 4.7 40.5 9.69 0.381
07:47 1024 30.24 853 25.19 9.3 48.8 72 4.6 40.2 9.68 0.381
07:48 1024 30.24 853 25.19 9.3 48.8 72 4.5 40.1 9.74 0.383
07:49 1024 30.24 853 25.19 9.4 49 73 4.9 40.8 9.79 0.385
07:50 1024 30.24 853 25.19 9.4 49 73 4.9 40.8 9.85 0.388
07:51 1024 30.24 853 25.19 9.5 49 74 5.1 41.2 9.89 0.389
07:52 1024 30.24 853 25.19 9.5 49.1 74 5.1 41.1 9.9 0.39
07:53 1024 30.24 853 25.19 9.5 49.1 73 5 40.9 9.92 0.391
07:54 1024 30.24 853 25.19 9.5 49.1 75 5.3 41.5 9.94 0.391
07:55 1024 30.24 853 25.19 9.5 49.1 76 5.5 41.9 9.95 0.392
07:56 1024 30.24 853 25.19 9.5 49.1 77 5.7 42.3 9.96 0.392
07:57 1024 30.24 853 25.19 9.5 49 76 5.5 41.9 9.94 0.391
07:58 1024 30.24 853 25.19 9.5 49 76 5.4 41.7 9.89 0.389
07:59 1024 30.24 853 25.19 9.5 49.1 76 5.5 41.8 9.9 0.39
08:00 1024 30.24 853 25.19 9.5 49 76 5.5 41.8 9.89 0.389
08:01 1024 30.24 853 25.19 9.5 49 76 5.5 41.8 9.87 0.389
08:02 1024 30.24 853 25.19 9.5 49 77 5.6 42.1 9.89 0.389
08:03 1023 30.21 853 25.19 9.5 49 75 5.3 41.5 9.9 0.39
08:04 1023 30.21 853 25.19 9.5 49.1 76 5.4 41.7 9.9 0.39
08:05 1023 30.21 853 25.19 9.5 49.1 76 5.5 42 9.91 0.39
08:06 1023 30.21 853 25.19 9.6 49.2 75 5.4 41.8 9.95 0.392
08:07 1023 30.21 852 25.16 9.6 49.3 75 5.4 41.7 10 0.394
08:08 1023 30.21 852 25.16 9.6 49.3 73 5 41 10.03 0.395
08:09 1023 30.21 852 25.16 9.7 49.5 72 5 41 10.11 0.398
08:10 1023 30.21 852 25.16 9.7 49.5 72 5 41 10.13 0.399
08:11 1023 30.21 852 25.16 9.8 49.6 76 5.7 42.2 10.18 0.401
08:12 1023 30.21 852 25.16 9.8 49.6 73 5.1 41.2 10.18 0.401
08:13 1023 30.21 852 25.16 9.8 49.6 75 5.5 42 10.17 0.4
08:14 1023 30.21 852 25.16 9.8 49.6 74 5.4 41.8 10.19 0.401
08:15 1023 30.21 852 25.16 9.8 49.6 74 5.3 41.5 10.21 0.402
08:16 1023 30.21 852 25.16 9.8 49.7 74 5.4 41.7 10.23 0.403
08:17 1023 30.21 852 25.16 9.8 49.7 70 4.7 40.5 10.26 0.404
08:18 1023 30.21 853 25.19 9.9 49.8 73 5.3 41.6 10.28 0.405
08:19 1023 30.21 853 25.19 9.9 49.8 70 4.8 40.6 10.3 0.406
08:20 1023 30.21 853 25.19 9.9 49.8 73 5.3 41.5 10.32 0.406
08:21 1023 30.21 853 25.19 9.9 49.9 71 4.9 40.9 10.34 0.407
08:22 1023 30.21 853 25.19 9.9 49.9 70 4.7 40.5 10.33 0.407
08:23 1023 30.21 853 25.19 10 49.9 71 4.9 40.8 10.4 0.409
08:24 1023 30.21 853 25.19 10 49.9 72 5.2 41.4 10.4 0.409
08:25 1023 30.21 853 25.19 10 50 71 5 41 10.41 0.41
08:26 1023 30.21 853 25.19 9.9 49.9 69 4.6 40.2 10.37 0.408
08:27 1024 30.24 853 25.19 10 49.9 72 5.2 41.3 10.39 0.409
08:28 1024 30.24 853 25.19 10 49.9 73 5.3 41.6 10.44 0.411
08:29 1024 30.24 853 25.19 10 50 72 5.2 41.4 10.42 0.41
08:30 1024 30.24 853 25.19 10 50 69 4.5 40.2 10.44 0.411
08:31 1024 30.24 853 25.19 10 50 68 4.3 39.8 10.45 0.411
08:32 1024 30.24 853 25.19 10 50.1 68 4.4 39.9 10.45 0.411
08:33 1024 30.24 853 25.19 10.1 50.2 70 4.9 40.8 10.51 0.414
08:34 1024 30.24 853 25.19 10.1 50.2 68 4.6 40.2 10.54 0.415
08:35 1024 30.24 853 25.19 10.2 50.3 69 4.7 40.5 10.53 0.415
08:36 1024 30.24 853 25.19 10.2 50.4 70 5.1 41.1 10.66 0.42
08:37 1024 30.24 853 25.19 10.3 50.6 69 4.9 40.9 10.74 0.423
08:38 1024 30.24 853 25.19 10.4 50.7 68 4.8 40.7 10.77 0.424
08:39 1024 30.24 853 25.19 10.5 50.9 67 4.7 40.4 10.87 0.428
08:40 1024 30.24 853 25.19 10.6 51 70 5.3 41.5 10.97 0.432
08:41 1024 30.24 853 25.19 10.7 51.2 65 4.4 39.9 11.04 0.435
08:42 1024 30.24 853 25.19 10.7 51.2 65 4.5 40 11.02 0.434
08:43 1024 30.24 853 25.19 10.7 51.3 65 4.5 40.1 11.1 0.437
08:44 1024 30.24 853 25.19 10.7 51.3 63 4.1 39.3 11.12 0.438
08:45 1024 30.24 853 25.19 10.8 51.4 66 4.6 40.3 11.12 0.438
08:46 1024 30.24 853 25.19 10.8 51.4 66 4.6 40.3 11.13 0.438
08:47 1024 30.24 853 25.19 10.8 51.4 67 5 40.9 11.16 0.439
08:48 1024 30.24 853 25.19 10.7 51.3 68 5 41.1 11.15 0.439
08:49 1024 30.24 853 25.19 10.7 51.3 71 5.7 42.3 11.18 0.44
08:50 1024 30.24 853 25.19 10.7 51.3 71 5.8 42.4 11.12 0.438
08:51 1024 30.24 853 25.19 10.7 51.2 73 6.1 43 11.05 0.435
08:52 1024 30.24 853 25.19 10.6 51.1 72 5.9 42.6 11.03 0.434
08:53 1024 30.24 853 25.19 10.6 51.1 75 6.3 43.4 11.02 0.434
08:54 1023 30.21 853 25.19 10.7 51.2 74 6.1 43.1 11.07 0.436
08:55 1024 30.24 853 25.19 10.7 51.2 72 5.9 42.7 11.04 0.435
08:56 1023 30.21 853 25.19 10.7 51.2 71 5.7 42.3 11.03 0.434
08:57 1023 30.21 853 25.19 10.7 51.2 68 5 41 11.09 0.437
08:58 1023 30.21 853 25.19 10.7 51.2 69 5.2 41.4 11.08 0.436
08:59 1023 30.21 853 25.19 10.7 51.3 71 5.7 42.2 11.13 0.438
09:00 1023 30.21 853 25.19 10.8 51.4 67 5 40.9 11.15 0.439
09:01 1023 30.21 853 25.19 10.8 51.4 65 4.6 40.2 11.19 0.441
09:02 1023 30.21 853 25.19 10.8 51.5 69 5.4 41.6 11.17 0.44
09:03 1023 30.21 853 25.19 10.8 51.5 63 4.2 39.5 11.25 0.443
09:04 1023 30.21 853 25.19 10.8 51.5 62 3.9 39 11.21 0.441
09:05 1023 30.21 853 25.19 10.9 51.6 67 5.1 41.2 11.29 0.444
09:06 1023 30.21 853 25.19 10.9 51.6 68 5.3 41.5 11.33 0.446
09:07 1023 30.21 853 25.19 11 51.8 69 5.5 41.8 11.45 0.451
09:08 1023 30.21 853 25.19 11 51.8 67 5.1 41.2 11.47 0.452
09:09 1023 30.21 853 25.19 11.1 51.9 61 3.8 38.8 11.5 0.453
09:10 1023 30.21 853 25.19 11.1 52.1 64 4.6 40.3 11.51 0.453
09:11 1023 30.21 853 25.19 11.2 52.2 68 5.5 42 11.62 0.457
09:12 1023 30.21 853 25.19 11.3 52.3 62 4.4 39.9 11.65 0.459
09:13 1023 30.21 853 25.19 11.3 52.3 64 4.8 40.6 11.66 0.459
09:14 1023 30.21 853 25.19 11.3 52.4 64 4.7 40.5 11.7 0.461
09:15 1023 30.21 853 25.19 11.4 52.5 62 4.4 39.9 11.8 0.465
09:16 1023 30.21 852 25.16 11.4 52.6 61 4.3 39.7 11.82 0.465
09:17 1023 30.21 852 25.16 11.4 52.6 61 4.1 39.5 11.81 0.465
09:18 1023 30.21 852 25.16 11.5 52.6 62 4.4 39.9 11.86 0.467
09:19 1023 30.21 852 25.16 11.5 52.7 62 4.5 40 11.88 0.468
09:20 1023 30.21 852 25.16 11.5 52.8 63 4.8 40.6 11.94 0.47
09:21 1023 30.21 852 25.16 11.6 52.8 62 4.6 40.4 11.98 0.472
09:22 1023 30.21 852 25.16 11.6 52.9 60 4.1 39.4 12.01 0.473
09:23 1023 30.21 852 25.16 11.7 53 60 4.1 39.4 12.01 0.473
09:24 1023 30.21 852 25.16 11.7 53 59 3.9 39 12 0.472
09:25 1023 30.21 852 25.16 11.7 53 62 4.8 40.7 12.02 0.473
09:26 1023 30.21 852 25.16 11.7 53.1 61 4.6 40.2 12.06 0.475
09:27 1023 30.21 852 25.16 11.7 53.1 61 4.5 40.1 12.1 0.476
09:28 1023 30.21 852 25.16 11.8 53.2 60 4.4 39.9 12.12 0.477
09:29 1023 30.21 852 25.16 11.8 53.2 60 4.3 39.8 12.17 0.479
09:30 1023 30.21 852 25.16 11.9 53.3 63 5 41 12.19 0.48
09:31 1023 30.21 852 25.16 11.9 53.4 61 4.6 40.2 12.23 0.481
09:32 1023 30.21 852 25.16 11.8 53.3 60 4.4 39.9 12.21 0.481
09:33 1023 30.21 852 25.16 11.9 53.4 60 4.5 40 12.19 0.48
09:34 1023 30.21 852 25.16 11.8 53.3 61 4.6 40.3 12.19 0.48
09:35 1023 30.21 852 25.16 11.9 53.3 60 4.3 39.7 12.22 0.481
09:36 1023 30.21 852 25.16 11.9 53.4 60 4.3 39.8 12.24 0.482
09:37 1023 30.21 852 25.16 11.9 53.5 59 4.3 39.8 12.27 0.483
09:38 1023 30.21 852 25.16 12 53.5 58 4.1 39.3 12.31 0.485
09:39 1023 30.21 852 25.16 12 53.6 62 5 41.1 12.32 0.485
09:40 1023 30.21 852 25.16 12 53.7 60 4.5 40.1 12.37 0.487
09:41 1023 30.21 852 25.16 12.1 53.7 60 4.5 40.1 12.42 0.489
09:42 1023 30.21 852 25.16 12.1 53.8 57 3.8 38.8 12.45 0.49
09:43 1023 30.21 852 25.16 12.1 53.9 58 4.2 39.6 12.51 0.493
09:44 1023 30.21 852 25.16 12.2 54 60 4.8 40.6 12.54 0.494
09:45 1023 30.21 852 25.16 12.3 54.1 62 5.2 41.4 12.7 0.5
09:46 1023 30.21 852 25.16 12.4 54.3 60 4.9 40.9 12.78 0.503
09:47 1023 30.21 852 25.16 12.5 54.6 61 5.2 41.3 12.88 0.507
09:48 1023 30.21 852 25.16 12.6 54.8 59 4.9 40.8 13.02 0.513
09:49 1023 30.21 852 25.16 12.7 54.9 62 5.7 42.2 13.07 0.515
09:50 1023 30.21 852 25.16 12.8 55 55 4.2 39.5 13.15 0.518
09:51 1023 30.21 852 25.16 12.8 55.1 58 4.8 40.7 13.12 0.517
09:52 1023 30.21 852 25.16 12.8 55.1 60 5.3 41.5 13.18 0.519
09:53 1023 30.21 852 25.16 12.9 55.2 56 4.3 39.7 13.22 0.52
09:54 1023 30.21 852 25.16 12.9 55.2 61 5.5 42 13.28 0.523
09:55 1023 30.21 852 25.16 12.9 55.3 58 5 40.9 13.31 0.524
09:56 1023 30.21 852 25.16 12.9 55.3 59 5.1 41.2 13.26 0.522
09:57 1023 30.21 852 25.16 13 55.3 61 5.7 42.3 13.32 0.524
09:58 1023 30.21 852 25.16 13 55.4 52 3.6 38.5 13.4 0.528
09:59 1023 30.21 852 25.16 13.1 55.5 59 5.3 41.6 13.38 0.527
10:00 1023 30.21 852 25.16 13.2 55.7 55 4.4 39.9 13.48 0.531
10:01 1023 30.21 852 25.16 13.2 55.8 60 5.6 42.1 13.53 0.533
10:02 1023 30.21 852 25.16 13.3 55.9 54 4.2 39.5 13.58 0.535
10:03 1023 30.21 852 25.16 13.3 55.9 60 5.7 42.2 13.66 0.538
10:04 1023 30.21 852 25.16 13.4 56 59 5.7 42.2 13.67 0.538
10:05 1023 30.21 852 25.16 13.4 56.1 61 6 42.8 13.75 0.541
10:06 1023 30.21 852 25.16 13.5 56.3 60 5.9 42.7 13.91 0.548
10:07 1023 30.21 852 25.16 13.5 56.3 58 5.6 42 13.84 0.545
10:08 1023 30.21 852 25.16 13.5 56.2 60 6 42.8 13.78 0.543
10:09 1023 30.21 852 25.16 13.5 56.2 59 5.6 42 13.8 0.543
10:10 1023 30.21 852 25.16 13.4 56.1 56 4.8 40.6 13.69 0.539
10:11 1023 30.21 852 25.16 13.4 56.2 56 4.9 40.8 13.75 0.541
10:12 1023 30.21 852 25.16 13.5 56.2 58 5.5 41.8 13.77 0.542
10:13 1023 30.21 852 25.16 13.5 56.4 59 5.8 42.4 13.93 0.548
10:14 1023 30.21 852 25.16 13.7 56.6 62 6.5 43.8 14.06 0.554
10:15 1023 30.21 852 25.16 13.8 56.9 59 6.1 43 14.1 0.555
10:16 1023 30.21 852 25.16 13.8 56.9 59 6 42.8 14.17 0.558
10:17 1023 30.21 852 25.16 13.9 57 57 5.5 41.8 14.22 0.56
10:18 1023 30.21 852 25.16 13.8 56.9 56 5.4 41.7 14.17 0.558
10:19 1023 30.21 852 25.16 13.9 56.9 57 5.5 41.8 14.25 0.561
10:20 1023 30.21 852 25.16 13.9 57 57 5.5 41.9 14.3 0.563
10:21 1023 30.21 852 25.16 14 57.1 62 6.8 44.2 14.34 0.565
10:22 1023 30.21 852 25.16 14 57.2 57 5.7 42.2 14.32 0.564
10:23 1023 30.21 852 25.16 14 57.1 54 4.8 40.6 14.22 0.56
10:24 1023 30.21 852 25.16 13.9 57 56 5.3 41.6 14.15 0.557
10:25 1023 30.21 852 25.16 13.8 56.9 65 7.3 45.2 14.2 0.559
10:26 1023 30.21 852 25.16 13.9 57 59 6.1 43 14.25 0.561
10:27 1023 30.21 852 25.16 13.8 56.9 58 5.8 42.4 14.15 0.557
10:28 1023 30.21 852 25.16 13.8 56.8 58 5.7 42.2 14.13 0.556
10:29 1023 30.21 852 25.16 13.7 56.7 59 6 42.7 14.1 0.555
10:30 1023 30.21 852 25.16 13.7 56.7 59 5.9 42.6 14.06 0.554
10:31 1023 30.21 852 25.16 13.8 56.8 61 6.4 43.5 14.06 0.554
10:32 1023 30.21 852 25.16 13.7 56.7 57 5.5 41.9 14.09 0.555
10:33 1023 30.21 852 25.16 13.8 56.8 61 6.4 43.5 14.13 0.556
10:34 1023 30.21 852 25.16 13.8 56.9 60 6.3 43.3 14.18 0.558
10:35 1023 30.21 852 25.16 13.8 56.9 58 5.9 42.5 14.14 0.557
10:36 1023 30.21 852 25.16 13.8 56.9 56 5.3 41.5 14.12 0.556
10:37 1023 30.21 852 25.16 13.8 56.8 58 5.7 42.2 14.07 0.554
10:38 1023 30.21 852 25.16 13.8 56.8 60 6.1 43 14.09 0.555
10:39 1023 30.21 852 25.16 13.8 56.8 60 6.2 43.2 14.06 0.554
10:40 1023 30.21 852 25.16 13.7 56.7 60 6.2 43.2 14.07 0.554
10:41 1023 30.21 852 25.16 13.8 56.8 58 5.7 42.2 14.09 0.555
10:42 1023 30.21 852 25.16 13.8 56.8 58 5.8 42.4 14.11 0.556
10:43 1023 30.21 852 25.16 13.7 56.7 61 6.5 43.6 13.99 0.551
10:44 1023 30.21 852 25.16 13.7 56.7 64 7.1 44.8 13.93 0.548
10:45 1023 30.21 852 25.16 13.6 56.5 55 4.9 40.8 13.83 0.544
10:46 1023 30.21 852 25.16 13.5 56.3 61 6.1 43 13.72 0.54
10:47 1023 30.21 852 25.16 13.5 56.2 60 5.9 42.6 13.73 0.541
10:48 1023 30.21 852 25.16 13.4 56.1 63 6.6 43.9 13.69 0.539
10:49 1023 30.21 852 25.16 13.4 56.1 60 5.8 42.4 13.65 0.537
10:50 1023 30.21 852 25.16 13.3 56 61 6.1 43 13.6 0.535
10:51 1023 30.21 852 25.16 13.3 55.9 66 7.1 44.7 13.59 0.535
10:52 1023 30.21 852 25.16 13.3 56 59 5.4 41.8 13.63 0.537
10:53 1023 30.21 852 25.16 13.3 55.9 59 5.6 42 13.57 0.534
10:54 1023 30.21 852 25.16 13.3 56 61 6 42.7 13.59 0.535
10:55 1023 30.21 852 25.16 13.3 55.9 61 6.1 43 13.54 0.533
10:56 1023 30.21 852 25.16 13.3 55.9 61 6 42.9 13.56 0.534
10:57 1023 30.21 852 25.16 13.3 55.9 63 6.4 43.6 13.57 0.534
10:58 1023 30.21 852 25.16 13.3 55.9 62 6.3 43.3 13.56 0.534
10:59 1023 30.21 852 25.16 13.3 56 64 6.7 44.1 13.53 0.533
11:00 1023 30.21 852 25.16 13.3 55.9 59 5.4 41.7 13.54 0.533
11:01 1023 30.21 852 25.16 13.3 56 61 5.9 42.7 13.52 0.532
11:02 1023 30.21 852 25.16 13.3 55.9 59 5.6 42.1 13.48 0.531
11:03 1023 30.21 852 25.16 13.3 55.9 64 6.7 44.1 13.49 0.531
11:04 1023 30.21 852 25.16 13.3 56 58 5.4 41.7 13.57 0.534
11:05 1023 30.21 852 25.16 13.4 56 63 6.6 43.8 13.67 0.538
11:06 1023 30.21 852 25.16 13.5 56.3 62 6.5 43.6 13.71 0.54
11:07 1023 30.21 852 25.16 13.6 56.5 61 6.4 43.5 13.8 0.543
11:08 1023 30.21 852 25.16 13.6 56.5 61 6.4 43.4 13.77 0.542
11:09 1023 30.21 852 25.16 13.6 56.5 62 6.4 43.6 13.81 0.544
11:10 1023 30.21 852 25.16 13.6 56.5 65 7.3 45.1 13.83 0.544
11:11 1023 30.21 852 25.16 13.7 56.6 59 5.8 42.5 13.87 0.546
11:12 1023 30.21 852 25.16 13.6 56.4 57 5.3 41.5 13.71 0.54
11:13 1023 30.21 852 25.16 13.5 56.3 60 6 42.8 13.68 0.539
11:14 1023 30.21 852 25.16 13.5 56.3 60 5.9 42.6 13.62 0.536
11:15 1023 30.21 852 25.16 13.5 56.2 61 6.2 43.2 13.64 0.537
11:16 1023 30.21 852 25.16 13.5 56.2 59 5.6 42.1 13.67 0.538
11:17 1023 30.21 852 25.16 13.5 56.2 58 5.4 41.7 13.63 0.537
11:18 1023 30.21 852 25.16 13.5 56.3 56 5 40.9 13.66 0.538
11:19 1023 30.21 852 25.16 13.6 56.4 61 6.3 43.3 13.74 0.541
11:20 1023 30.21 852 25.16 13.7 56.6 61 6.4 43.5 13.93 0.548
11:21 1023 30.21 852 25.16 13.8 56.8 57 5.4 41.7 14 0.551
11:22 1023 30.21 852 25.16 13.9 57 60 6.2 43.2 14.04 0.553
11:23 1023 30.21 852 25.16 13.9 57.1 61 6.7 44 14.12 0.556
11:24 1023 30.21 852 25.16 14 57.2 57 5.8 42.4 14.24 0.561
11:25 1023 30.21 852 25.16 14.1 57.4 57 5.8 42.4 14.34 0.565
11:26 1023 30.21 852 25.16 14.2 57.6 60 6.7 44 14.37 0.566
11:27 1023 30.21 852 25.16 14.3 57.7 54 5.1 41.2 14.36 0.565
11:28 1023 30.21 852 25.16 14.2 57.6 66 8 46.5 14.35 0.565
11:29 1023 30.21 852 25.16 14.4 57.9 64 7.7 45.9 14.61 0.575
11:30 1023 30.21 852 25.16 14.5 58.2 53 5.1 41.2 14.78 0.582
11:31 1023 30.21 852 25.16 14.6 58.3 57 6.1 43.1 14.78 0.582
11:32 1023 30.21 852 25.16 14.7 58.4 55 5.8 42.4 14.89 0.586
11:33 1023 30.21 852 25.16 14.8 58.6 60 7.1 44.7 14.96 0.589
11:34 1023 30.21 852 25.16 14.8 58.7 55 6 42.8 14.91 0.587
11:35 1023 30.21 852 25.16 14.6 58.3 53 5.1 41.3 14.66 0.577
11:36 1023 30.21 852 25.16 14.5 58.1 56 5.8 42.4 14.53 0.572
11:37 1023 30.21 852 25.16 14.5 58.2 55 5.6 42.2 14.69 0.578
11:38 1023 30.21 852 25.16 14.6 58.3 52 4.8 40.7 14.83 0.584
11:39 1023 30.21 852 25.16 14.7 58.4 59 6.7 44.1 15.02 0.591
11:40 1023 30.21 852 25.16 14.8 58.6 57 6.4 43.5 15.13 0.596
11:41 1023 30.21 852 25.16 14.9 58.8 52 5.2 41.3 15.19 0.598
11:42 1023 30.21 852 25.16 14.9 58.8 52 5.2 41.4 15.06 0.593
11:43 1023 30.21 852 25.16 14.8 58.7 50 4.7 40.5 14.96 0.589
11:44 1023 30.21 852 25.16 14.8 58.6 51 4.8 40.6 14.81 0.583
11:45 1023 30.21 852 25.16 14.6 58.4 57 6.3 43.4 14.81 0.583
11:46 1023 30.21 852 25.16 14.6 58.4 57 6.3 43.3 15.02 0.591
11:47 1023 30.21 852 25.16 14.6 58.4 57 6.4 43.5 15.18 0.598
11:48 1023 30.21 852 25.16 14.9 58.8 52 5.2 41.4 15.39 0.606
11:49 1023 30.21 852 25.16 14.9 58.9 56 6.4 43.5 15.33 0.604
11:50 1023 30.21 852 25.16 15 59 52 5.4 41.7 15.35 0.604
11:51 1023 30.21 852 25.16 15.1 59.1 51 5 41 15.35 0.604
11:52 1023 30.21 852 25.16 15.1 59.2 56 6.4 43.5 15.31 0.603
11:53 1023 30.21 852 25.16 15.2 59.3 58 7 44.7 15.38 0.606
11:54 1023 30.21 852 25.16 15.3 59.5 49 4.8 40.6 15.58 0.613
11:55 1023 30.21 852 25.16 15.4 59.7 52 5.6 42.1 15.61 0.615
11:56 1023 30.21 852 25.16 15.4 59.8 52 5.7 42.2 15.64 0.616
11:57 1023 30.21 852 25.16 15.4 59.7 51 5.3 41.6 15.58 0.613
11:58 1023 30.21 852 25.16 15.3 59.6 50 5 40.9 15.43 0.607
11:59 1023 30.21 852 25.16 15.4 59.7 59 7.4 45.3 15.37 0.605
12:00 1023 30.21 852 25.16 15.4 59.8 51 5.4 41.7 15.43 0.607
12:01 1023 30.21 852 25.16 15.6 60 51 5.6 42.1 15.56 0.613
12:02 1023 30.21 852 25.16 15.7 60.2 56 7.1 44.7 15.64 0.616
12:03 1023 30.21 852 25.16 15.7 60.2 60 8.1 46.6 15.66 0.617
12:04 1023 30.21 852 25.16 15.7 60.3 56 7.2 45 15.75 0.62
12:05 1023 30.21 852 25.16 15.7 60.3 53 6.3 43.3 15.79 0.622
12:06 1023 30.21 852 25.16 15.7 60.3 53 6.3 43.3 15.75 0.62
12:07 1023 30.21 852 25.16 15.7 60.2 50 5.3 41.6 15.77 0.621
12:08 1023 30.21 852 25.16 15.6 60.1 53 6 42.9 15.71 0.619
12:09 1023 30.21 852 25.16 15.6 60 51 5.6 42.1 15.71 0.619
12:10 1022 30.18 852 25.16 15.6 60 54 6.4 43.5 15.67 0.617
12:11 1022 30.18 852 25.16 15.6 60 54 6.3 43.3 15.8 0.622
12:12 1022 30.18 852 25.16 15.6 60 49 5.1 41.2 15.78 0.621
12:13 1022 30.18 852 25.16 15.6 60 50 5.3 41.5 15.95 0.628
12:14 1022 30.18 852 25.16 15.6 60 51 5.7 42.2 16.09 0.633
12:15 1022 30.18 852 25.16 15.5 59.8 50 5.2 41.3 16.13 0.635
12:16 1022 30.18 852 25.16 15.4 59.7 59 7.5 45.5 16.11 0.634
12:17 1022 30.18 852 25.16 15.4 59.8 57 6.9 44.5 16.24 0.639
12:18 1022 30.18 852 25.16 15.6 60.1 50 5.4 41.8 16.36 0.644
12:19 1022 30.18 852 25.16 15.8 60.4 53 6.2 43.1 16.44 0.647
12:20 1022 30.18 851 25.13 16 60.9 55 7.2 44.9 16.59 0.653
12:21 1022 30.18 851 25.13 16.1 61 48 5.2 41.4 16.6 0.654
12:22 1022 30.18 851 25.13 15.9 60.7 55 6.9 44.4 16.28 0.641
12:23 1022 30.18 851 25.13 15.8 60.5 60 8.2 46.7 16.21 0.638
12:24 1022 30.18 851 25.13 15.9 60.6 56 7.2 45 16.22 0.639
12:25 1022 30.18 851 25.13 16 60.7 55 7.1 44.8 16.23 0.639
12:26 1022 30.18 851 25.13 16 60.7 58 7.8 46 16.18 0.637
12:27 1022 30.18 851 25.13 15.9 60.6 57 7.4 45.3 16.14 0.635
12:28 1022 30.18 851 25.13 15.9 60.6 59 8 46.4 16.08 0.633
12:29 1022 30.18 851 25.13 16 60.8 66 9.8 49.6 16.28 0.641
12:30 1022 30.18 851 25.13 16.2 61.2 58 8.1 46.6 16.52 0.65
12:31 1022 30.18 851 25.13 16.4 61.6 59 8.5 47.3 16.68 0.657
12:32 1022 30.18 851 25.13 16.6 61.8 55 7.7 45.9 16.87 0.664
12:33 1022 30.18 851 25.13 16.7 62 55 7.8 46 16.89 0.665
12:34 1022 30.18 851 25.13 16.7 62 53 7.3 45.1 16.91 0.666
12:35 1022 30.18 851 25.13 16.8 62.2 56 8 46.4 16.94 0.667
12:36 1022 30.18 851 25.13 16.9 62.3 55 7.9 46.2 16.92 0.666
12:37 1022 30.18 851 25.13 16.8 62.2 59 8.8 47.9 16.93 0.667
12:38 1022 30.18 851 25.13 16.9 62.4 64 10 50 17.19 0.677
12:39 1022 30.18 851 25.13 17.1 62.7 48 6.2 43.1 17.47 0.688
12:40 1022 30.18 851 25.13 17.1 62.8 52 7.3 45.1 17.24 0.679
12:41 1022 30.18 851 25.13 17.1 62.8 50 6.9 44.3 17.25 0.679
12:42 1022 30.18 851 25.13 17 62.6 53 7.4 45.2 17.08 0.672
12:43 1022 30.18 851 25.13 16.9 62.4 51 6.9 44.5 16.96 0.668
12:44 1022 30.18 851 25.13 16.8 62.3 46 5.4 41.7 16.95 0.667
12:45 1022 30.18 851 25.13 16.6 61.9 46 5.2 41.3 16.76 0.66
12:46 1022 30.18 851 25.13 16.4 61.5 51 6.2 43.1 16.54 0.651
12:47 1022 30.18 851 25.13 16.4 61.5 54 7.1 44.8 16.67 0.656
12:48 1022 30.18 851 25.13 16.5 61.6 47 5.2 41.4 16.78 0.661
12:49 1022 30.18 851 25.13 16.5 61.7 50 6.1 42.9 16.86 0.664
12:50 1022 30.18 851 25.13 16.5 61.7 48 5.5 41.9 16.92 0.666
12:51 1022 30.18 851 25.13 16.5 61.7 56 7.8 46 17.09 0.673
12:52 1022 30.18 851 25.13 16.6 61.9 45 4.8 40.7 17.08 0.672
12:53 1022 30.18 851 25.13 16.6 61.9 49 6 42.8 16.94 0.667
12:54 1022 30.18 851 25.13 16.6 62 48 5.7 42.2 17.06 0.672
12:55 1022 30.18 851 25.13 16.8 62.2 50 6.3 43.4 17.15 0.675
12:56 1022 30.18 851 25.13 16.8 62.2 50 6.4 43.6 17.06 0.672
12:57 1022 30.18 851 25.13 16.8 62.2 48 5.8 42.4 16.96 0.668
12:58 1022 30.18 851 25.13 16.7 62 51 6.5 43.6 16.87 0.664
12:59 1022 30.18 851 25.13 16.7 62 48 5.7 42.3 16.86 0.664
13:00 1022 30.18 851 25.13 16.7 62 48 5.7 42.2 16.84 0.663
13:01 1022 30.18 851 25.13 16.7 62.1 52 6.8 44.2 16.75 0.659
13:02 1022 30.18 851 25.13 16.7 62 53 7.1 44.8 16.79 0.661
13:03 1022 30.18 851 25.13 16.8 62.2 58 8.7 47.6 17.01 0.67
13:04 1022 30.18 851 25.13 16.9 62.4 49 6.2 43.2 17.12 0.674
13:05 1022 30.18 851 25.13 16.9 62.5 51 6.9 44.4 17.11 0.674
13:06 1022 30.18 851 25.13 17.1 62.7 51 6.9 44.5 17.29 0.681
13:07 1022 30.18 851 25.13 17.2 62.9 49 6.5 43.6 17.35 0.683
13:08 1022 30.18 851 25.13 17.3 63.1 46 5.8 42.4 17.4 0.685
13:09 1022 30.18 851 25.13 17.3 63.2 56 8.6 47.4 17.5 0.689
13:10 1022 30.18 851 25.13 17.4 63.4 48 6.5 43.7 17.52 0.69
13:11 1022 30.18 851 25.13 17.3 63.2 49 6.5 43.8 17.39 0.685
13:12 1022 30.18 851 25.13 17.3 63.1 47 6 42.8 17.34 0.683
13:13 1022 30.18 851 25.13 17.2 62.9 48 6 42.9 17.3 0.681
13:14 1022 30.18 851 25.13 17.2 63 53 7.7 45.8 17.39 0.685
13:15 1022 30.18 851 25.13 17.2 63 46 5.5 42 17.46 0.687
13:16 1022 30.18 851 25.13 17.2 62.9 51 7 44.6 17.44 0.687
13:17 1022 30.18 851 25.13 17.1 62.8 55 8.2 46.7 17.46 0.687
13:18 1022 30.18 851 25.13 17.1 62.7 45 5.2 41.4 17.56 0.691
13:19 1022 30.18 851 25.13 17.2 62.9 46 5.5 41.9 17.6 0.693
13:20 1022 30.18 851 25.13 17.3 63.2 54 8.1 46.5 17.78 0.7
13:21 1022 30.18 851 25.13 17.4 63.3 56 8.7 47.7 17.94 0.706
13:22 1022 30.18 851 25.13 17.4 63.4 50 7 44.5 18.08 0.712
13:23 1022 30.18 851 25.13 17.5 63.5 54 8.3 46.9 18.22 0.717
13:24 1022 30.18 851 25.13 17.6 63.6 42 4.8 40.7 18.24 0.718
13:25 1022 30.18 851 25.13 17.6 63.7 43 4.9 40.8 18.27 0.719
13:26 1022 30.18 851 25.13 17.6 63.7 48 6.6 43.8 18.31 0.721
13:27 1022 30.18 851 25.13 17.6 63.8 56 8.9 47.9 18.41 0.725
13:28 1022 30.18 851 25.13 17.7 63.9 51 7.5 45.5 18.35 0.722
13:29 1022 30.18 851 25.13 17.7 63.8 51 7.4 45.3 18.13 0.714
13:30 1022 30.18 851 25.13 17.6 63.7 52 7.7 45.9 17.95 0.707
13:31 1022 30.18 851 25.13 17.6 63.6 48 6.6 43.8 17.81 0.701
13:32 1022 30.18 851 25.13 17.6 63.6 49 6.9 44.5 17.77 0.7
13:33 1022 30.18 851 25.13 17.5 63.4 52 7.7 45.9 17.69 0.696
13:34 1022 30.18 851 25.13 17.4 63.4 57 8.9 48 17.64 0.694
13:35 1022 30.18 851 25.13 17.5 63.4 50 7.1 44.9 17.75 0.699
13:36 1022 30.18 851 25.13 17.5 63.5 44 5.4 41.7 17.68 0.696
13:37 1022 30.18 851 25.13 17.5 63.5 51 7.4 45.3 17.68 0.696
13:38 1022 30.18 851 25.13 17.6 63.6 55 8.5 47.2 17.68 0.696
13:39 1022 30.18 851 25.13 17.6 63.7 47 6.4 43.6 17.86 0.703
13:40 1022 30.18 851 25.13 17.7 63.9 49 7.1 44.7 17.97 0.707
13:41 1022 30.18 851 25.13 17.9 64.3 52 7.9 46.3 18.29 0.72
13:42 1022 30.18 851 25.13 18.1 64.6 52 8.3 46.9 18.47 0.727
13:43 1021 30.15 851 25.13 18.2 64.8 51 7.9 46.3 18.51 0.729
13:44 1021 30.15 851 25.13 18.3 64.9 56 9.5 49.1 18.55 0.73
13:45 1021 30.15 851 25.13 18.3 65 47 7.1 44.7 18.54 0.73
13:46 1021 30.15 851 25.13 18.3 65 49 7.5 45.6 18.39 0.724
13:47 1021 30.15 851 25.13 18.3 65 49 7.6 45.7 18.44 0.726
13:48 1021 30.15 851 25.13 18.3 65 51 8.2 46.7 18.48 0.728
13:49 1021 30.15 851 25.13 18.3 65 46 6.8 44.2 18.47 0.727
13:50 1021 30.15 851 25.13 18.3 64.9 48 7.3 45.1 18.34 0.722
13:51 1021 30.15 851 25.13 18.2 64.7 45 6.3 43.4 18.37 0.723
13:52 1021 30.15 851 25.13 18.2 64.7 44 5.7 42.2 18.45 0.726
13:53 1021 30.15 851 25.13 18.3 64.9 47 6.8 44.3 18.5 0.728
13:54 1021 30.15 851 25.13 18.3 64.9 53 8.7 47.6 18.49 0.728
13:55 1021 30.15 851 25.13 18.3 64.9 44 6.1 42.9 18.36 0.723
13:56 1021 30.15 851 25.13 18.2 64.7 44 5.9 42.7 18.23 0.718
13:57 1021 30.15 851 25.13 18.1 64.7 50 7.5 45.6 18.17 0.715
13:58 1021 30.15 851 25.13 18.2 64.7 50 7.8 46 18.31 0.721
13:59 1021 30.15 851 25.13 18.1 64.6 48 7.1 44.8 18.38 0.724
14:00 1021 30.15 851 25.13 18 64.5 47 6.7 44.1 18.43 0.726
14:01 1021 30.15 851 25.13 18.1 64.5 52 8.2 46.8 18.55 0.73
14:02 1021 30.15 851 25.13 18.1 64.6 50 7.6 45.7 18.53 0.73
14:03 1021 30.15 851 25.13 18.1 64.5 47 6.6 43.9 18.44 0.726
14:04 1021 30.15 851 25.13 18 64.3 52 8.1 46.5 18.45 0.726
14:05 1021 30.15 850 25.1 18 64.3 47 6.6 43.9 18.49 0.728
14:06 1021 30.15 850 25.1 17.9 64.1 48 6.8 44.2 18.29 0.72
14:07 1021 30.15 850 25.1 17.7 63.9 51 7.6 45.8 18.24 0.718
14:08 1021 30.15 850 25.1 17.7 63.8 48 6.8 44.2 18.21 0.717
14:09 1021 30.15 851 25.13 17.7 63.9 46 6.1 43 18.32 0.721
14:10 1021 30.15 851 25.13 17.9 64.2 47 6.7 44 18.43 0.726
14:11 1021 30.15 850 25.1 18.1 64.6 54 8.8 47.9 18.6 0.732
14:12 1021 30.15 851 25.13 18.2 64.8 47 6.9 44.5 18.74 0.738
14:13 1021 30.15 851 25.13 18.2 64.8 55 9 48.3 18.68 0.735
14:14 1021 30.15 850 25.1 18.2 64.8 52 8.2 46.8 18.59 0.732
14:15 1021 30.15 850 25.1 18.3 64.9 48 7.2 45 18.58 0.731
14:16 1021 30.15 850 25.1 18.3 64.9 48 7.3 45.2 18.5 0.728
14:17 1021 30.15 850 25.1 18.3 65 49 7.4 45.4 18.45 0.726
14:18 1021 30.15 850 25.1 18.4 65.1 53 8.8 47.9 18.57 0.731
14:19 1021 30.15 850 25.1 18.4 65.1 48 7.5 45.4 18.69 0.736
14:20 1021 30.15 850 25.1 18.4 65.1 46 6.8 44.2 18.73 0.737
14:21 1021 30.15 850 25.1 18.3 64.9 47 6.9 44.4 18.51 0.729
14:22 1021 30.15 850 25.1 18.1 64.5 49 7.2 44.9 18.41 0.725
14:23 1021 30.15 850 25.1 17.9 64.3 49 7.3 45.1 18.26 0.719
14:24 1021 30.15 850 25.1 17.9 64.2 50 7.4 45.4 18.21 0.717
14:25 1021 30.15 850 25.1 17.8 64.1 51 7.6 45.6 18.21 0.717
14:26 1021 30.15 851 25.13 17.9 64.2 52 7.9 46.3 18.3 0.72
14:27 1021 30.15 850 25.1 17.9 64.3 50 7.4 45.4 18.38 0.724
14:28 1021 30.15 850 25.1 17.9 64.2 53 8.3 46.9 18.35 0.722
14:29 1021 30.15 850 25.1 17.9 64.1 50 7.4 45.2 18.37 0.723
14:30 1021 30.15 850 25.1 17.9 64.1 47 6.4 43.6 18.34 0.722
14:31 1021 30.15 850 25.1 17.8 64.1 47 6.3 43.4 18.25 0.719
14:32 1021 30.15 850 25.1 17.8 64 51 7.6 45.7 18.22 0.717
14:33 1021 30.15 850 25.1 17.9 64.2 51 7.8 46 18.3 0.72
14:34 1021 30.15 850 25.1 18 64.4 55 8.9 48 18.38 0.724
14:35 1021 30.15 850 25.1 18.1 64.5 49 7.3 45.2 18.38 0.724
14:36 1021 30.15 850 25.1 18.1 64.6 51 8 46.5 18.31 0.721
14:37 1021 30.15 850 25.1 18.1 64.6 51 7.8 46.1 18.29 0.72
14:38 1021 30.15 850 25.1 18.1 64.5 54 8.6 47.5 18.24 0.718
14:39 1021 30.15 850 25.1 18 64.5 49 7.4 45.3 18.24 0.718
14:40 1021 30.15 850 25.1 18.1 64.5 47 6.8 44.2 18.23 0.718
14:41 1021 30.15 850 25.1 18 64.3 49 7.2 44.9 18.27 0.719
14:42 1021 30.15 850 25.1 18 64.4 45 6 42.8 18.3 0.72
14:43 1021 30.15 850 25.1 18 64.4 50 7.5 45.5 18.35 0.722
14:44 1021 30.15 850 25.1 18.1 64.5 46 6.4 43.6 18.45 0.726
14:45 1021 30.15 850 25.1 18.2 64.8 56 9.3 48.8 18.42 0.725
14:46 1021 30.15 850 25.1 18.3 64.9 53 8.8 47.8 18.53 0.73
14:47 1021 30.15 850 25.1 18.3 65 47 7.1 44.8 18.57 0.731
14:48 1021 30.15 850 25.1 18.3 65 51 8.2 46.8 18.42 0.725
14:49 1021 30.15 850 25.1 18.2 64.8 54 8.9 48.1 18.35 0.722
14:50 1021 30.15 850 25.1 18.1 64.6 46 6.4 43.6 18.29 0.72
14:51 1021 30.15 850 25.1 18 64.4 46 6.2 43.1 18.19 0.716
14:52 1021 30.15 850 25.1 17.9 64.2 54 8.6 47.4 18.13 0.714
14:53 1021 30.15 850 25.1 17.9 64.2 45 5.9 42.6 18.1 0.713
14:54 1021 30.15 850 25.1 17.8 64 50 7.5 45.5 18.04 0.71
14:55 1021 30.15 850 25.1 17.8 64 46 6 42.9 18.08 0.712
14:56 1021 30.15 850 25.1 17.8 64 51 7.7 45.8 18.11 0.713
14:57 1021 30.15 850 25.1 17.8 64.1 51 7.6 45.7 18.18 0.716
14:58 1021 30.15 850 25.1 17.8 64.1 49 7 44.6 18.11 0.713
14:59 1021 30.15 850 25.1 17.8 64 54 8.3 47 17.97 0.707
15:00 1021 30.15 850 25.1 17.7 63.8 56 8.9 48 18.03 0.71
15:01 1021 30.15 850 25.1 17.7 63.8 55 8.6 47.5 18.01 0.709
15:02 1021 30.15 850 25.1 17.6 63.7 58 9.2 48.6 17.88 0.704
15:03 1021 30.15 850 25.1 17.6 63.6 47 6.2 43.2 17.85 0.703
15:04 1021 30.15 850 25.1 17.6 63.6 54 8.3 47 17.81 0.701
15:05 1021 30.15 850 25.1 17.6 63.7 51 7.4 45.4 17.84 0.702
15:06 1021 30.15 850 25.1 17.8 64 57 9.3 48.8 17.99 0.708
15:07 1021 30.15 850 25.1 17.8 64 53 8.2 46.8 18.06 0.711
15:08 1021 30.15 850 25.1 17.8 64.1 52 7.8 46.1 18.11 0.713
15:09 1021 30.15 850 25.1 17.9 64.2 50 7.4 45.2 18.09 0.712
15:10 1021 30.15 850 25.1 17.9 64.2 52 7.9 46.2 18.01 0.709
15:11 1021 30.15 850 25.1 17.9 64.1 52 7.9 46.3 18.07 0.711
15:12 1021 30.15 850 25.1 17.9 64.2 53 8.3 46.9 18.14 0.714
15:13 1021 30.15 850 25.1 17.9 64.3 51 7.8 46.1 18.2 0.717
15:14 1021 30.15 850 25.1 17.9 64.2 54 8.7 47.6 18.17 0.715
15:15 1021 30.15 850 25.1 17.9 64.2 57 9.3 48.8 18.11 0.713
15:16 1021 30.15 850 25.1 17.8 64.1 51 7.6 45.7 18.09 0.712
15:17 1021 30.15 850 25.1 17.9 64.1 56 9.1 48.4 18.04 0.71
15:18 1021 30.15 850 25.1 17.9 64.1 55 8.9 48 18.07 0.711
15:19 1021 30.15 850 25.1 17.9 64.2 50 7.4 45.3 18.1 0.713
15:20 1021 30.15 850 25.1 18 64.3 54 8.5 47.4 18.19 0.716
15:21 1021 30.15 850 25.1 18 64.4 46 6.2 43.2 18.19 0.716
15:22 1021 30.15 850 25.1 18 64.4 50 7.7 45.8 18.24 0.718
15:23 1021 30.15 850 25.1 18.1 64.5 53 8.3 47 18.32 0.721
15:24 1021 30.15 850 25.1 18.1 64.6 53 8.5 47.3 18.33 0.722
15:25 1021 30.15 850 25.1 18.1 64.6 49 7.3 45.2 18.32 0.721
15:26 1021 30.15 850 25.1 18 64.4 55 8.9 48.1 18.2 0.717
15:27 1021 30.15 850 25.1 17.9 64.3 50 7.6 45.7 18.13 0.714
15:28 1021 30.15 850 25.1 17.9 64.3 54 8.5 47.3 18.13 0.714
15:29 1020 30.12 850 25.1 17.9 64.2 59 10 50 18.14 0.714
15:30 1020 30.12 850 25.1 17.9 64.2 53 8.3 47 18.15 0.715
15:31 1020 30.12 850 25.1 17.9 64.1 53 8.2 46.8 18.1 0.713
15:32 1020 30.12 849 25.07 17.9 64.2 59 9.9 49.8 18.11 0.713
15:33 1020 30.12 849 25.07 17.9 64.2 53 8.2 46.8 18.2 0.717
15:34 1020 30.12 849 25.07 17.9 64.3 53 8.4 47.1 18.18 0.716
15:35 1020 30.12 850 25.1 18 64.4 52 8.1 46.5 18.24 0.718
15:36 1020 30.12 850 25.1 18.1 64.5 51 7.7 45.9 18.32 0.721
15:37 1020 30.12 850 25.1 18.1 64.6 47 6.8 44.3 18.29 0.72
15:38 1020 30.12 850 25.1 18.2 64.7 52 8.4 47.1 18.37 0.723
15:39 1020 30.12 850 25.1 18.2 64.8 53 8.5 47.4 18.44 0.726
15:40 1020 30.12 850 25.1 18.2 64.7 54 8.8 47.8 18.41 0.725
15:41 1020 30.12 850 25.1 18.1 64.7 49 7.5 45.5 18.32 0.721
15:42 1020 30.12 850 25.1 18.1 64.6 49 7.2 45 18.25 0.719
15:43 1020 30.12 850 25.1 18.1 64.6 54 8.7 47.6 18.35 0.722
15:44 1020 30.12 850 25.1 18.2 64.7 46 6.4 43.5 18.49 0.728
15:45 1020 30.12 850 25.1 18.2 64.8 46 6.6 44 18.48 0.728
15:46 1020 30.12 850 25.1 18.2 64.8 50 7.7 45.9 18.38 0.724
15:47 1020 30.12 849 25.07 18.3 64.9 45 6.3 43.3 18.47 0.727
15:48 1020 30.12 849 25.07 18.2 64.8 50 7.6 45.7 18.42 0.725
15:49 1020 30.12 849 25.07 18.2 64.8 46 6.4 43.6 18.48 0.728
15:50 1020 30.12 849 25.07 18.2 64.8 48 7.2 44.9 18.47 0.727
15:51 1020 30.12 849 25.07 18.3 64.9 53 8.7 47.6 18.51 0.729
15:52 1020 30.12 849 25.07 18.3 64.9 54 8.9 48 18.6 0.732
15:53 1020 30.12 849 25.07 18.3 64.9 50 7.7 45.9 18.52 0.729
15:54 1020 30.12 849 25.07 18.3 64.9 53 8.8 47.8 18.44 0.726
15:55 1020 30.12 849 25.07 18.3 64.9 52 8.5 47.3 18.52 0.729
15:56 1020 30.12 849 25.07 18.4 65 52 8.5 47.4 18.62 0.733
15:57 1020 30.12 849 25.07 18.5 65.2 57 9.9 49.9 18.77 0.739
15:58 1020 30.12 849 25.07 18.6 65.4 51 8.4 47.2 18.85 0.742
15:59 1020 30.12 849 25.07 18.6 65.5 51 8.4 47.1 18.83 0.741
16:00 1020 30.12 849 25.07 18.5 65.3 46 6.8 44.3 18.72 0.737
16:01 1020 30.12 849 25.07 18.4 65.1 48 7.3 45.1 18.62 0.733
16:02 1020 30.12 849 25.07 18.4 65 52 8.4 47.1 18.65 0.734
16:03 1020 30.12 849 25.07 18.4 65.1 52 8.5 47.3 18.7 0.736
16:04 1020 30.12 849 25.07 18.4 65.2 49 7.7 45.9 18.75 0.738
16:05 1020 30.12 849 25.07 18.5 65.3 52 8.5 47.3 18.79 0.74
16:06 1020 30.12 849 25.07 18.7 65.6 59 10.7 51.3 18.98 0.747
16:07 1020 30.12 849 25.07 18.9 66 49 7.9 46.3 19.23 0.757
16:08 1020 30.12 849 25.07 18.9 66 46 7 44.7 19.1 0.752
16:09 1020 30.12 849 25.07 18.8 65.9 47 7.5 45.6 19.02 0.749
16:10 1020 30.12 849 25.07 18.8 65.9 49 8 46.3 19.09 0.752
16:11 1020 30.12 849 25.07 18.8 65.9 52 8.9 48.1 19.15 0.754
16:12 1020 30.12 849 25.07 18.8 65.8 58 10.4 50.7 19.01 0.748
16:13 1020 30.12 849 25.07 18.7 65.6 50 8.2 46.7 18.89 0.744
16:14 1020 30.12 849 25.07 18.6 65.4 50 8.1 46.5 18.8 0.74
16:15 1020 30.12 849 25.07 18.6 65.5 46 6.8 44.3 18.86 0.743
16:16 1020 30.12 849 25.07 18.7 65.7 46 7 44.7 19.07 0.751
16:17 1020 30.12 849 25.07 19 66.1 52 9.1 48.3 19.41 0.764
16:18 1020 30.12 849 25.07 19.3 66.7 53 9.6 49.4 19.71 0.776
16:19 1020 30.12 849 25.07 19.5 67.1 54 10.1 50.2 19.93 0.785
16:20 1020 30.12 849 25.07 19.6 67.2 45 7.6 45.6 19.87 0.782
16:21 1020 30.12 849 25.07 19.5 67.1 48 8.3 46.9 19.69 0.775
16:22 1020 30.12 849 25.07 19.4 66.8 42 6.2 43.1 19.61 0.772
16:23 1020 30.12 849 25.07 19.2 66.5 44 6.8 44.2 19.33 0.761
16:24 1020 30.12 849 25.07 19.1 66.3 43 6.3 43.3 19.31 0.76
16:25 1020 30.12 849 25.07 19 66.2 43 6.3 43.3 19.27 0.759
16:26 1020 30.12 849 25.07 19 66.3 46 7.4 45.3 19.28 0.759
16:27 1020 30.12 849 25.07 19.1 66.3 52 9.2 48.6 19.4 0.764
16:28 1020 30.12 849 25.07 19.2 66.5 52 9.2 48.6 19.46 0.766
16:29 1020 30.12 849 25.07 19.2 66.5 50 8.5 47.3 19.4 0.764
16:30 1020 30.12 849 25.07 19.1 66.4 49 8.3 47 19.27 0.759
16:31 1020 30.12 849 25.07 19.1 66.3 47 7.5 45.5 19.27 0.759
16:32 1020 30.12 849 25.07 19.1 66.3 46 7.3 45.2 19.35 0.762
16:33 1020 30.12 849 25.07 19.1 66.3 49 8.2 46.7 19.34 0.761
16:34 1020 30.12 849 25.07 19.1 66.4 43 6.3 43.3 19.32 0.761
16:35 1020 30.12 849 25.07 19 66.3 43 6.2 43.2 19.2 0.756
16:36 1020 30.12 849 25.07 19 66.2 42 6 42.9 19.14 0.754
16:37 1020 30.12 849 25.07 19 66.2 43 6.1 43 19.16 0.754
16:38 1020 30.12 849 25.07 19 66.2 44 6.6 43.9 19.17 0.755
16:39 1020 30.12 849 25.07 19 66.2 46 7.3 45.1 19.19 0.756
16:40 1020 30.12 849 25.07 19 66.2 44 6.5 43.7 19.11 0.752
16:41 1020 30.12 849 25.07 19 66.2 45 7 44.6 19.04 0.75
16:42 1020 30.12 849 25.07 19 66.2 47 7.5 45.5 19.12 0.753
16:43 1020 30.12 849 25.07 19 66.2 44 6.6 43.9 19.07 0.751
16:44 1020 30.12 849 25.07 19 66.2 50 8.4 47.2 19.04 0.75
16:45 1020 30.12 849 25.07 18.9 66 52 8.9 48 19.04 0.75
16:46 1020 30.12 849 25.07 18.8 65.8 55 9.6 49.3 18.95 0.746
16:47 1020 30.12 849 25.07 18.8 65.8 57 10.2 50.4 18.89 0.744
16:48 1020 30.12 849 25.07 18.6 65.5 50 8.1 46.6 18.75 0.738
16:49 1020 30.12 849 25.07 18.4 65.2 51 8.3 46.9 18.55 0.73
16:50 1020 30.12 849 25.07 18.3 64.9 55 9.3 48.7 18.42 0.725
16:51 1020 30.12 849 25.07 18.1 64.6 54 8.8 47.8 18.35 0.722
16:52 1020 30.12 849 25.07 17.9 64.3 53 8.3 47 18.14 0.714
16:53 1020 30.12 849 25.07 17.8 64.1 55 8.8 47.8 18.02 0.709
16:54 1020 30.12 849 25.07 17.7 63.8 54 8.2 46.8 17.89 0.704
16:55 1020 30.12 849 25.07 17.6 63.6 53 7.9 46.3 17.79 0.7
16:56 1020 30.12 849 25.07 17.5 63.5 56 8.8 47.9 17.74 0.698
16:57 1020 30.12 849 25.07 17.4 63.3 54 8 46.4 17.64 0.694
16:58 1020 30.12 849 25.07 17.4 63.2 55 8.2 46.8 17.61 0.693
16:59 1020 30.12 849 25.07 17.3 63.2 57 8.7 47.7 17.61 0.693
17:00 1020 30.12 849 25.07 17.3 63.1 58 9.1 48.4 17.54 0.691
17:01 1020 30.12 849 25.07 17.2 62.9 60 9.4 48.9 17.48 0.688
17:02 1020 30.12 849 25.07 17.1 62.7 59 9.1 48.3 17.37 0.684
17:03 1020 30.12 849 25.07 17 62.6 54 7.9 46.2 17.28 0.68
17:04 1020 30.12 849 25.07 16.9 62.5 57 8.5 47.2 17.27 0.68
17:05 1019 30.09 849 25.07 16.9 62.4 56 8.3 46.9 17.23 0.678
17:06 1019 30.09 849 25.07 16.9 62.4 59 8.8 47.9 17.24 0.679
17:07 1019 30.09 849 25.07 16.8 62.3 59 9 48.1 17.16 0.676
17:08 1020 30.12 849 25.07 16.8 62.2 61 9.2 48.6 17.05 0.671
17:09 1020 30.12 849 25.07 16.8 62.2 60 9 48.2 17.06 0.672
17:10 1020 30.12 849 25.07 16.7 62 62 9.4 48.9 16.98 0.669
17:11 1020 30.12 849 25.07 16.5 61.8 60 8.8 47.8 16.89 0.665
17:12 1020 30.12 849 25.07 16.5 61.6 57 8.1 46.6 16.77 0.66
17:13 1020 30.12 849 25.07 16.4 61.6 58 8.2 46.8 16.76 0.66
17:14 1020 30.12 849 25.07 16.4 61.5 59 8.5 47.3 16.77 0.66
17:15 1020 30.12 849 25.07 16.3 61.4 57 8 46.3 16.64 0.655
17:16 1020 30.12 849 25.07 16.3 61.3 60 8.5 47.3 16.55 0.652
17:17 1020 30.12 849 25.07 16.2 61.1 60 8.4 47.1 16.53 0.651
17:18 1020 30.12 849 25.07 16.1 60.9 61 8.7 47.7 16.38 0.645
17:19 1020 30.12 849 25.07 16 60.8 63 8.9 48.1 16.36 0.644
17:20 1020 30.12 849 25.07 15.9 60.6 63 8.8 47.9 16.28 0.641
17:21 1020 30.12 849 25.07 15.8 60.5 63 8.9 48.1 16.22 0.639
17:22 1020 30.12 849 25.07 15.7 60.3 65 9.2 48.6 16.17 0.637
17:23 1020 30.12 849 25.07 15.6 60.1 70 10.2 50.4 16.1 0.634
17:24 1020 30.12 849 25.07 15.3 59.6 71 10.2 50.4 15.87 0.625
17:25 1020 30.12 849 25.07 15.1 59.2 72 10.2 50.4 15.64 0.616
17:26 1020 30.12 849 25.07 15 58.9 72 10 50 15.46 0.609
17:27 1020 30.12 849 25.07 14.9 58.9 69 9.4 49 15.35 0.604
17:28 1020 30.12 849 25.07 14.9 58.9 71 9.8 49.6 15.34 0.604
17:29 1020 30.12 849 25.07 15 58.9 72 10 50 15.39 0.606
17:30 1020 30.12 849 25.07 15 59 72 10.1 50.2 15.43 0.607
17:31 1020 30.12 849 25.07 15.1 59.2 75 10.7 51.3 15.58 0.613
17:32 1020 30.12 849 25.07 15.2 59.3 77 11.2 52.1 15.63 0.615
17:33 1020 30.12 849 25.07 15.2 59.4 75 10.9 51.6 15.67 0.617
17:34 1020 30.12 849 25.07 15.3 59.5 75 10.9 51.6 15.67 0.617
17:35 1020 30.12 849 25.07 15.3 59.6 74 10.7 51.3 15.79 0.622
17:36 1020 30.12 849 25.07 15.4 59.6 74 10.9 51.5 15.83 0.623
17:37 1020 30.12 849 25.07 15.4 59.8 76 11.3 52.3 15.86 0.624
17:38 1020 30.12 849 25.07 15.5 59.9 73 10.8 51.5 15.96 0.628
17:39 1020 30.12 849 25.07 15.4 59.8 69 9.8 49.6 15.85 0.624
17:40 1020 30.12 849 25.07 15.5 59.9 71 10.4 50.7 15.85 0.624
17:41 1020 30.12 849 25.07 15.5 59.9 74 10.9 51.7 15.89 0.626
17:42 1020 30.12 849 25.07 15.5 59.9 75 11.1 51.9 15.88 0.625
17:43 1020 30.12 849 25.07 15.5 59.9 68 9.7 49.5 15.94 0.628
17:44 1020 30.12 849 25.07 15.5 60 70 10 50.1 15.88 0.625
17:45 1020 30.12 849 25.07 15.5 60 68 9.8 49.6 15.86 0.624
17:46 1020 30.12 849 25.07 15.5 59.9 71 10.3 50.6 15.82 0.623
17:47 1020 30.12 849 25.07 15.5 59.9 74 10.9 51.6 15.83 0.623
17:48 1020 30.12 849 25.07 15.4 59.7 72 10.4 50.7 15.78 0.621
17:49 1020 30.12 849 25.07 15.3 59.6 70 10 50 15.68 0.617
17:50 1020 30.12 849 25.07 15.2 59.4 71 10 50 15.61 0.615
17:51 1020 30.12 849 25.07 15.2 59.4 70 9.9 49.8 15.59 0.614
17:52 1020 30.12 849 25.07 15.2 59.4 72 10.2 50.4 15.57 0.613
17:53 1020 30.12 849 25.07 15.2 59.4 71 10.1 50.1 15.58 0.613
17:54 1020 30.12 849 25.07 15.3 59.5 67 9.3 48.8 15.61 0.615
17:55 1020 30.12 849 25.07 15.3 59.5 71 10.1 50.1 15.61 0.615
17:56 1020 30.12 849 25.07 15.3 59.5 73 10.5 50.9 15.71 0.619
17:57 1020 30.12 849 25.07 15.3 59.6 70 9.9 49.8 15.7 0.618
17:58 1020 30.12 849 25.07 15.4 59.6 73 10.6 51 15.75 0.62
17:59 1020 30.12 849 25.07 15.4 59.6 72 10.4 50.6 15.74 0.62
18:00 1020 30.12 849 25.07 15.3 59.6 67 9.3 48.7 15.64 0.616
18:01 1020 30.12 849 25.07 15.3 59.6 69 9.7 49.4 15.62 0.615
18:02 1020 30.12 849 25.07 15.3 59.5 66 9 48.2 15.57 0.613
18:03 1020 30.12 849 25.07 15.2 59.4 67 9.1 48.4 15.55 0.612
18:04 1020 30.12 849 25.07 15.2 59.4 67 9.2 48.6 15.58 0.613
18:05 1020 30.12 849 25.07 15.2 59.3 69 9.6 49.2 15.49 0.61
18:06 1020 30.12 849 25.07 15.2 59.3 68 9.3 48.7 15.49 0.61
18:07 1020 30.12 849 25.07 15.1 59.2 68 9.3 48.8 15.39 0.606
18:08 1020 30.12 849 25.07 15 59.1 69 9.5 49 15.4 0.606
18:09 1020 30.12 849 25.07 15 59 72 10 50 15.38 0.606
18:10 1020 30.12 849 25.07 15 59 72 9.9 49.9 15.37 0.605
18:11 1020 30.12 849 25.07 15 59 71 9.9 49.8 15.36 0.605
18:12 1020 30.12 849 25.07 15 59 68 9.1 48.5 15.37 0.605
18:13 1020 30.12 849 25.07 15 59 69 9.4 48.9 15.33 0.604
18:14 1020 30.12 849 25.07 14.8 58.7 67 8.8 47.9 15.16 0.597
18:15 1020 30.12 849 25.07 14.6 58.4 70 9.2 48.5 14.9 0.587
18:16 1020 30.12 849 25.07 14.4 57.9 70 9 48.2 14.74 0.58
18:17 1020 30.12 849 25.07 14.2 57.6 72 9.3 48.7 14.59 0.574
18:18 1020 30.12 849 25.07 14.1 57.4 72 9.1 48.5 14.48 0.57
18:19 1020 30.12 849 25.07 14 57.2 72 9 48.2 14.36 0.565
18:20 1020 30.12 849 25.07 14 57.1 73 9.2 48.5 14.4 0.567
18:21 1020 30.12 849 25.07 14 57.2 74 9.6 49.2 14.36 0.565
18:22 1020 30.12 849 25.07 14 57.2 76 9.9 49.9 14.38 0.566
18:23 1020 30.12 849 25.07 14 57.2 77 10.1 50.1 14.37 0.566
18:24 1020 30.12 849 25.07 14 57.2 76 9.9 49.8 14.4 0.567
18:25 1020 30.12 849 25.07 14.1 57.4 76 10 49.9 14.42 0.568
18:26 1020 30.12 849 25.07 14.1 57.4 74 9.7 49.4 14.5 0.571
18:27 1020 30.12 849 25.07 14.2 57.6 75 9.9 49.9 14.63 0.576
18:28 1020 30.12 849 25.07 14.3 57.7 72 9.2 48.6 14.64 0.576
18:29 1020 30.12 849 25.07 14.3 57.8 73 9.7 49.4 14.68 0.578
18:30 1020 30.12 849 25.07 14.4 57.9 73 9.7 49.4 14.79 0.582
18:31 1020 30.12 849 25.07 14.4 58 74 9.8 49.7 14.82 0.583
18:32 1020 30.12 849 25.07 14.4 58 73 9.7 49.5 14.8 0.583
18:33 1020 30.12 849 25.07 14.5 58.1 75 10.2 50.4 14.84 0.584
18:34 1020 30.12 849 25.07 14.5 58.1 75 10.1 50.2 14.82 0.583
18:35 1020 30.12 849 25.07 14.5 58.2 76 10.3 50.6 14.91 0.587
18:36 1020 30.12 849 25.07 14.5 58.1 74 10 49.9 14.89 0.586
18:37 1020 30.12 849 25.07 14.5 58.2 74 10.1 50.1 14.89 0.586
18:38 1020 30.12 849 25.07 14.6 58.3 74 10.1 50.2 14.92 0.587
18:39 1020 30.12 849 25.07 14.6 58.2 73 9.8 49.6 14.91 0.587
18:40 1020 30.12 849 25.07 14.6 58.2 75 10.2 50.4 14.95 0.589
18:41 1020 30.12 849 25.07 14.6 58.3 75 10.3 50.5 14.99 0.59
18:42 1020 30.12 849 25.07 14.6 58.3 75 10.3 50.5 14.97 0.589
18:43 1020 30.12 849 25.07 14.6 58.2 75 10.2 50.4 14.96 0.589
18:44 1020 30.12 849 25.07 14.6 58.2 78 10.9 51.6 14.97 0.589
18:45 1020 30.12 849 25.07 14.6 58.2 77 10.6 51 15 0.591
18:46 1020 30.12 849 25.07 14.5 58.2 74 10 50 14.92 0.587
18:47 1020 30.12 849 25.07 14.6 58.2 75 10.3 50.5 14.97 0.589
18:48 1020 30.12 849 25.07 14.6 58.2 73 9.9 49.9 15 0.591
18:49 1020 30.12 849 25.07 14.7 58.4 76 10.4 50.8 15.01 0.591
18:50 1020 30.12 849 25.07 14.7 58.4 75 10.3 50.5 15.03 0.592
18:51 1020 30.12 849 25.07 14.7 58.4 73 10 50 15.09 0.594
18:52 1020 30.12 849 25.07 14.7 58.4 77 10.7 51.3 15.1 0.594
18:53 1020 30.12 849 25.07 14.7 58.5 77 10.8 51.5 15.13 0.596
18:54 1020 30.12 849 25.07 14.7 58.5 77 10.7 51.3 15.11 0.595
18:55 1020 30.12 849 25.07 14.7 58.5 78 10.9 51.6 15.11 0.595
18:56 1020 30.12 849 25.07 14.7 58.4 77 10.8 51.5 15.1 0.594
18:57 1020 30.12 849 25.07 14.7 58.4 77 10.8 51.4 15.11 0.595
18:58 1020 30.12 849 25.07 14.7 58.4 78 10.9 51.6 15.09 0.594
18:59 1020 30.12 849 25.07 14.7 58.5 79 11.1 51.9 15.08 0.594
19:00 1020 30.12 849 25.07 14.7 58.5 80 11.2 52.2 15.12 0.595
19:01 1020 30.12 849 25.07 14.7 58.4 79 11.1 51.9 15.12 0.595
19:02 1020 30.12 849 25.07 14.7 58.4 79 11 51.9 15.11 0.595
19:03 1020 30.12 849 25.07 14.7 58.4 76 10.6 51.1 15.08 0.594
19:04 1020 30.12 849 25.07 14.7 58.4 76 10.5 51 15.07 0.593
19:05 1020 30.12 849 25.07 14.7 58.4 77 10.7 51.2 15.07 0.593
19:06 1020 30.12 849 25.07 14.7 58.4 78 10.8 51.5 15.1 0.594
19:07 1020 30.12 849 25.07 14.7 58.4 78 10.9 51.6 15.11 0.595
19:08 1020 30.12 849 25.07 14.7 58.4 80 11.2 52.2 15.08 0.594
19:09 1020 30.12 849 25.07 14.7 58.4 81 11.4 52.5 15.11 0.595
19:10 1020 30.12 849 25.07 14.6 58.3 80 11.3 52.3 15.1 0.594
19:11 1020 30.12 849 25.07 14.6 58.3 80 11.3 52.3 15.06 0.593
19:12 1020 30.12 849 25.07 14.6 58.2 80 11.2 52.2 15.02 0.591
19:13 1020 30.12 849 25.07 14.6 58.3 78 10.9 51.6 14.98 0.59
19:14 1020 30.12 849 25.07 14.6 58.3 80 11.2 52.1 15.01 0.591
19:15 1020 30.12 849 25.07 14.6 58.3 80 11.2 52.2 15.04 0.592
19:16 1020 30.12 849 25.07 14.6 58.3 82 11.6 52.9 15.04 0.592
19:17 1020 30.12 849 25.07 14.6 58.3 84 11.9 53.5 15.08 0.594
19:18 1020 30.12 849 25.07 14.6 58.2 84 11.9 53.4 15.02 0.591
19:19 1020 30.12 849 25.07 14.5 58.1 83 11.7 53.1 14.95 0.589
19:20 1020 30.12 849 25.07 14.4 58 83 11.7 53 14.89 0.586
19:21 1020 30.12 849 25.07 14.4 58 84 11.8 53.2 14.83 0.584
19:22 1020 30.12 849 25.07 14.3 57.8 85 11.8 53.3 14.79 0.582
19:23 1020 30.12 849 25.07 14.3 57.8 85 11.8 53.3 14.77 0.581
19:24 1020 30.12 849 25.07 14.3 57.8 85 11.8 53.3 14.76 0.581
19:25 1020 30.12 849 25.07 14.3 57.7 85 11.8 53.3 14.73 0.58
19:26 1020 30.12 849 25.07 14.3 57.7 86 12 53.6 14.73 0.58
19:27 1020 30.12 849 25.07 14.2 57.6 86 11.9 53.5 14.67 0.578
19:28 1020 30.12 849 25.07 14.3 57.7 86 12 53.6 14.67 0.578
19:29 1020 30.12 849 25.07 14.3 57.7 88 12.2 54 14.68 0.578
19:30 1020 30.12 849 25.07 14.2 57.6 87 12.2 53.9 14.72 0.58
19:31 1020 30.12 849 25.07 14.2 57.5 87 12.1 53.8 14.64 0.576
19:32 1020 30.12 849 25.07 14.1 57.4 87 12.1 53.8 14.53 0.572
19:33 1020 30.12 849 25.07 14 57.3 88 12 53.6 14.49 0.57
19:34 1020 30.12 849 25.07 13.9 57.1 86 11.6 52.8 14.36 0.565
19:35 1020 30.12 849 25.07 13.9 57 84 11.2 52.1 14.28 0.562
19:36 1020 30.12 849 25.07 13.9 57.1 83 11.1 52.1 14.27 0.562
19:37 1020 30.12 850 25.1 14 57.1 83 11.2 52.1 14.28 0.562
19:38 1020 30.12 849 25.07 13.9 57.1 83 11.1 52 14.23 0.56
19:39 1020 30.12 849 25.07 13.9 57.1 82 11 51.7 14.24 0.561
19:40 1020 30.12 849 25.07 13.9 57 82 10.9 51.6 14.24 0.561
19:41 1020 30.12 849 25.07 13.9 57 82 10.8 51.5 14.21 0.559
19:42 1020 30.12 849 25.07 13.9 57 80 10.6 51 14.21 0.559
19:43 1020 30.12 849 25.07 13.9 57 79 10.3 50.5 14.19 0.559
19:44 1020 30.12 850 25.1 13.8 56.9 79 10.3 50.6 14.13 0.556
19:45 1020 30.12 849 25.07 13.8 56.9 80 10.5 50.9 14.15 0.557
19:46 1020 30.12 849 25.07 13.8 56.8 81 10.6 51.1 14.14 0.557
19:47 1020 30.12 849 25.07 13.7 56.7 83 10.8 51.5 14.06 0.554
19:48 1020 30.12 849 25.07 13.6 56.6 80 10.3 50.5 13.99 0.551
19:49 1020 30.12 850 25.1 13.6 56.4 80 10.3 50.5 13.89 0.547
19:50 1020 30.12 850 25.1 13.5 56.3 81 10.4 50.8 13.88 0.546
19:51 1020 30.12 850 25.1 13.4 56.2 81 10.3 50.6 13.84 0.545
19:52 1020 30.12 850 25.1 13.4 56.1 83 10.6 51 13.76 0.542
19:53 1020 30.12 850 25.1 13.3 56 84 10.7 51.2 13.69 0.539
19:54 1020 30.12 849 25.07 13.2 55.8 85 10.7 51.3 13.62 0.536
19:55 1020 30.12 849 25.07 13.1 55.6 85 10.6 51.2 13.55 0.533
19:56 1020 30.12 849 25.07 13.1 55.5 85 10.6 51.1 13.49 0.531
19:57 1020 30.12 849 25.07 13 55.4 85 10.6 51.1 13.45 0.53
19:58 1020 30.12 850 25.1 13 55.3 85 10.6 51 13.4 0.528
19:59 1020 30.12 850 25.1 12.9 55.3 85 10.5 50.9 13.37 0.526
20:00 1020 30.12 850 25.1 12.9 55.2 85 10.4 50.8 13.31 0.524
20:01 1020 30.12 850 25.1 12.9 55.2 86 10.6 51.1 13.31 0.524
20:02 1020 30.12 850 25.1 12.8 55.1 86 10.6 51.1 13.24 0.521
20:03 1020 30.12 850 25.1 12.8 55 86 10.5 50.9 13.23 0.521
20:04 1020 30.12 850 25.1 12.8 55 86 10.5 51 13.16 0.518
20:05 1020 30.12 850 25.1 12.7 54.9 86 10.4 50.7 13.11 0.516
20:06 1020 30.12 850 25.1 12.7 54.9 86 10.5 50.9 13.08 0.515
20:07 1020 30.12 850 25.1 12.7 54.8 86 10.5 50.9 13.06 0.514
20:08 1020 30.12 850 25.1 12.7 54.8 87 10.5 51 13.1 0.516
20:09 1020 30.12 850 25.1 12.6 54.7 87 10.6 51 13.03 0.513
20:10 1021 30.15 850 25.1 12.6 54.7 88 10.6 51.1 13.01 0.512
20:11 1021 30.15 850 25.1 12.6 54.6 87 10.5 50.9 12.99 0.511
20:12 1021 30.15 850 25.1 12.6 54.6 88 10.6 51.1 12.93 0.509
20:13 1021 30.15 850 25.1 12.5 54.5 88 10.6 51 12.93 0.509
20:14 1021 30.15 850 25.1 12.5 54.5 88 10.6 51.1 12.89 0.507
20:15 1021 30.15 850 25.1 12.5 54.5 88 10.6 51.1 12.89 0.507
20:16 1021 30.15 850 25.1 12.5 54.4 89 10.6 51.1 12.88 0.507
20:17 1021 30.15 850 25.1 12.5 54.4 89 10.6 51.2 12.86 0.506
20:18 1021 30.15 850 25.1 12.5 54.4 89 10.7 51.2 12.82 0.505
20:19 1021 30.15 850 25.1 12.4 54.4 88 10.5 51 12.8 0.504
20:20 1021 30.15 850 25.1 12.4 54.4 88 10.5 50.9 12.81 0.504
20:21 1021 30.15 850 25.1 12.4 54.4 88 10.5 50.9 12.8 0.504
20:22 1021 30.15 850 25.1 12.4 54.3 88 10.5 50.9 12.77 0.503
20:23 1021 30.15 850 25.1 12.4 54.3 89 10.6 51 12.77 0.503
20:24 1021 30.15 850 25.1 12.3 54.2 89 10.5 51 12.72 0.501
20:25 1021 30.15 850 25.1 12.3 54.2 89 10.6 51.1 12.73 0.501
20:26 1021 30.15 850 25.1 12.3 54.2 89 10.6 51.1 12.71 0.5
20:27 1020 30.12 850 25.1 12.3 54.1 89 10.5 51 12.67 0.499
20:28 1020 30.12 850 25.1 12.3 54.1 89 10.5 51 12.65 0.498
20:29 1020 30.12 850 25.1 12.3 54.1 90 10.6 51.1 12.62 0.497
20:30 1020 30.12 850 25.1 12.2 54 89 10.5 50.8 12.61 0.496
20:31 1020 30.12 850 25.1 12.2 54 88 10.4 50.7 12.61 0.496
20:32 1020 30.12 850 25.1 12.3 54.1 90 10.7 51.2 12.6 0.496
20:33 1020 30.12 850 25.1 12.2 54 90 10.6 51.1 12.62 0.497
20:34 1020 30.12 850 25.1 12.2 53.9 89 10.4 50.7 12.6 0.496
20:35 1021 30.15 850 25.1 12.2 53.9 87 10.1 50.2 12.51 0.493
20:36 1021 30.15 850 25.1 12.2 54 87 10.1 50.2 12.51 0.493
20:37 1020 30.12 850 25.1 12.2 54 87 10.1 50.2 12.54 0.494
20:38 1020 30.12 850 25.1 12.2 54 88 10.2 50.4 12.54 0.494
20:39 1020 30.12 850 25.1 12.2 54 88 10.2 50.4 12.54 0.494
20:40 1020 30.12 850 25.1 12.2 53.9 87 10.1 50.2 12.55 0.494
20:41 1020 30.12 850 25.1 12.2 53.9 88 10.2 50.3 12.5 0.492
20:42 1020 30.12 850 25.1 12.1 53.9 87 10.1 50.2 12.47 0.491
20:43 1020 30.12 850 25.1 12.1 53.8 88 10.1 50.2 12.44 0.49
20:44 1020 30.12 850 25.1 12.1 53.7 88 10.1 50.2 12.44 0.49
20:45 1020 30.12 850 25.1 12 53.7 89 10.2 50.4 12.41 0.489
20:46 1020 30.12 850 25.1 12 53.6 89 10.3 50.5 12.37 0.487
20:47 1020 30.12 850 25.1 11.9 53.5 89 10.3 50.5 12.37 0.487
20:48 1020 30.12 850 25.1 11.9 53.4 90 10.3 50.6 12.29 0.484
20:49 1020 30.12 850 25.1 11.9 53.4 91 10.4 50.7 12.25 0.482
20:50 1020 30.12 850 25.1 11.8 53.2 91 10.4 50.7 12.18 0.48
20:51 1020 30.12 850 25.1 11.8 53.2 91 10.4 50.7 12.14 0.478
20:52 1021 30.15 850 25.1 11.7 53.1 92 10.4 50.7 12.11 0.477
20:53 1021 30.15 850 25.1 11.7 53.1 92 10.4 50.8 12.09 0.476
20:54 1021 30.15 850 25.1 11.7 53 92 10.4 50.7 12.06 0.475
20:55 1021 30.15 850 25.1 11.7 53 92 10.4 50.8 12.03 0.474
20:56 1021 30.15 850 25.1 11.7 53 92 10.5 50.8 12.03 0.474
20:57 1021 30.15 850 25.1 11.7 53 93 10.5 50.9 12.08 0.476
20:58 1021 30.15 850 25.1 11.7 53.1 93 10.6 51.1 12.05 0.474
20:59 1021 30.15 850 25.1 11.7 53.1 93 10.6 51.1 12.1 0.476
21:00 1020 30.12 850 25.1 11.7 53.1 93 10.6 51 12.08 0.476
21:01 1020 30.12 850 25.1 11.8 53.2 92 10.6 51.1 12.13 0.478
21:02 1020 30.12 850 25.1 11.9 53.4 92 10.7 51.2 12.17 0.479
21:03 1020 30.12 850 25.1 11.9 53.4 92 10.7 51.2 12.26 0.483
21:04 1020 30.12 849 25.07 12 53.5 92 10.8 51.4 12.26 0.483
21:05 1020 30.12 849 25.07 11.9 53.5 92 10.7 51.3 12.29 0.484
21:06 1020 30.12 849 25.07 12 53.5 92 10.8 51.4 12.26 0.483
21:07 1020 30.12 849 25.07 12 53.5 92 10.8 51.4 12.3 0.484
21:08 1020 30.12 849 25.07 12 53.5 93 10.8 51.4 12.3 0.484
21:09 1020 30.12 849 25.07 11.9 53.5 92 10.7 51.3 12.3 0.484
21:10 1020 30.12 849 25.07 12 53.5 92 10.7 51.2 12.3 0.484
21:11 1020 30.12 849 25.07 12 53.6 92 10.7 51.3 12.32 0.485
21:12 1020 30.12 849 25.07 12 53.6 92 10.8 51.5 12.36 0.487
21:13 1020 30.12 849 25.07 12 53.6 93 10.9 51.6 12.33 0.485
21:14 1020 30.12 849 25.07 12 53.6 93 10.8 51.5 12.34 0.486
21:15 1020 30.12 849 25.07 12 53.5 93 10.9 51.5 12.31 0.485
21:16 1020 30.12 849 25.07 11.9 53.5 93 10.9 51.5 12.32 0.485
21:17 1020 30.12 849 25.07 11.9 53.4 93 10.8 51.5 12.33 0.485
21:18 1020 30.12 849 25.07 11.9 53.4 93 10.8 51.5 12.28 0.483
21:19 1020 30.12 849 25.07 11.9 53.4 93 10.8 51.5 12.27 0.483
21:20 1020 30.12 849 25.07 11.9 53.3 93 10.8 51.4 12.3 0.484
21:21 1020 30.12 849 25.07 11.9 53.4 93 10.8 51.4 12.29 0.484
21:22 1020 30.12 849 25.07 11.9 53.4 92 10.7 51.3 12.24 0.482
21:23 1020 30.12 849 25.07 11.9 53.4 92 10.7 51.3 12.25 0.482
21:24 1020 30.12 849 25.07 11.9 53.5 92 10.7 51.3 12.23 0.481
21:25 1020 30.12 849 25.07 11.9 53.3 92 10.7 51.2 12.23 0.481
21:26 1020 30.12 849 25.07 11.9 53.4 92 10.7 51.2 12.2 0.48
21:27 1020 30.12 849 25.07 11.9 53.4 93 10.7 51.3 12.19 0.48
21:28 1020 30.12 849 25.07 11.9 53.3 93 10.7 51.3 12.19 0.48
21:29 1020 30.12 849 25.07 11.9 53.3 93 10.7 51.3 12.16 0.479
21:30 1020 30.12 849 25.07 11.8 53.3 93 10.7 51.3 12.16 0.479
21:31 1020 30.12 849 25.07 11.8 53.3 93 10.7 51.2 12.13 0.478
21:32 1020 30.12 849 25.07 11.8 53.3 92 10.6 51.1 12.21 0.481
21:33 1020 30.12 849 25.07 11.8 53.3 92 10.6 51.1 12.16 0.479
21:34 1020 30.12 849 25.07 11.8 53.3 92 10.6 51.1 12.15 0.478
21:35 1020 30.12 849 25.07 11.8 53.3 92 10.5 51 12.16 0.479
21:36 1020 30.12 849 25.07 11.9 53.3 92 10.6 51 12.16 0.479
21:37 1020 30.12 849 25.07 11.8 53.3 92 10.6 51 12.15 0.478
21:38 1020 30.12 849 25.07 11.8 53.3 92 10.5 51 12.13 0.478
21:39 1020 30.12 849 25.07 11.8 53.2 92 10.5 51 12.17 0.479
21:40 1020 30.12 849 25.07 11.8 53.2 92 10.5 51 12.14 0.478
21:41 1020 30.12 849 25.07 11.7 53.1 92 10.5 51 12.1 0.476
21:42 1020 30.12 849 25.07 11.7 53.1 92 10.5 50.9 12.08 0.476
21:43 1020 30.12 849 25.07 11.7 53.1 92 10.5 50.9 12.05 0.474
21:44 1020 30.12 849 25.07 11.7 53.1 92 10.5 50.8 12.04 0.474
21:45 1020 30.12 849 25.07 11.7 53 92 10.5 50.8 12.01 0.473
21:46 1020 30.12 849 25.07 11.7 53 92 10.4 50.8 11.97 0.471
21:47 1020 30.12 849 25.07 11.6 53 92 10.4 50.7 11.96 0.471
21:48 1020 30.12 849 25.07 11.6 52.9 92 10.4 50.7 11.94 0.47
21:49 1020 30.12 849 25.07 11.6 52.8 93 10.4 50.7 11.89 0.468
21:50 1020 30.12 849 25.07 11.5 52.8 93 10.4 50.7 11.89 0.468
21:51 1020 30.12 849 25.07 11.5 52.8 93 10.4 50.7 11.85 0.467
21:52 1020 30.12 849 25.07 11.5 52.7 93 10.4 50.7 11.88 0.468
21:53 1020 30.12 849 25.07 11.5 52.7 93 10.4 50.7 11.84 0.466
21:54 1020 30.12 849 25.07 11.5 52.8 93 10.4 50.8 11.85 0.467
21:55 1020 30.12 849 25.07 11.5 52.7 93 10.4 50.7 11.83 0.466
21:56 1020 30.12 849 25.07 11.5 52.7 93 10.4 50.8 11.84 0.466
21:57 1020 30.12 849 25.07 11.5 52.6 93 10.4 50.7 11.83 0.466
21:58 1020 30.12 849 25.07 11.5 52.7 93 10.4 50.7 11.77 0.463
21:59 1020 30.12 849 25.07 11.5 52.6 93 10.4 50.7 11.81 0.465
22:00 1020 30.12 849 25.07 11.5 52.6 93 10.4 50.7 11.79 0.464
22:01 1020 30.12 849 25.07 11.4 52.6 93 10.4 50.7 11.76 0.463
22:02 1020 30.12 849 25.07 11.5 52.6 93 10.4 50.7 11.78 0.464
22:03 1020 30.12 849 25.07 11.5 52.6 93 10.4 50.7 11.79 0.464
22:04 1020 30.12 849 25.07 11.5 52.7 93 10.4 50.7 11.81 0.465
22:05 1020 30.12 849 25.07 11.5 52.7 93 10.4 50.7 11.79 0.464
22:06 1020 30.12 849 25.07 11.5 52.6 93 10.3 50.6 11.81 0.465
22:07 1020 30.12 849 25.07 11.5 52.7 93 10.4 50.7 11.79 0.464
22:08 1020 30.12 849 25.07 11.5 52.7 93 10.4 50.7 11.79 0.464
22:09 1020 30.12 849 25.07 11.5 52.6 92 10.3 50.5 11.8 0.465
22:10 1020 30.12 849 25.07 11.5 52.7 92 10.3 50.6 11.85 0.467
22:11 1020 30.12 849 25.07 11.5 52.7 92 10.3 50.5 11.88 0.468
22:12 1020 30.12 849 25.07 11.5 52.8 92 10.3 50.5 11.87 0.467
22:13 1020 30.12 849 25.07 11.6 52.8 92 10.3 50.5 11.88 0.468
22:14 1020 30.12 849 25.07 11.6 52.8 92 10.3 50.6 11.87 0.467
22:15 1020 30.12 849 25.07 11.6 52.9 92 10.3 50.6 11.9 0.469
22:16 1020 30.12 849 25.07 11.6 52.9 92 10.3 50.6 11.95 0.47
22:17 1020 30.12 849 25.07 11.6 52.9 92 10.3 50.6 11.89 0.468
22:18 1020 30.12 849 25.07 11.6 52.8 92 10.3 50.6 11.89 0.468
22:19 1020 30.12 849 25.07 11.6 52.9 92 10.4 50.7 11.94 0.47
22:20 1020 30.12 849 25.07 11.6 52.9 92 10.4 50.7 11.93 0.47
22:21 1020 30.12 849 25.07 11.6 52.8 92 10.4 50.7 11.9 0.469
22:22 1020 30.12 849 25.07 11.5 52.7 93 10.3 50.6 11.85 0.467
22:23 1020 30.12 849 25.07 11.5 52.7 93 10.4 50.7 11.86 0.467
22:24 1020 30.12 849 25.07 11.4 52.6 93 10.3 50.6 11.82 0.465
22:25 1020 30.12 849 25.07 11.5 52.6 93 10.3 50.6 11.81 0.465
22:26 1020 30.12 849 25.07 11.5 52.7 92 10.3 50.6 11.84 0.466
22:27 1020 30.12 849 25.07 11.6 52.8 92 10.3 50.6 11.84 0.466
22:28 1020 30.12 849 25.07 11.5 52.8 92 10.3 50.5 11.84 0.466
22:29 1020 30.12 849 25.07 11.5 52.8 92 10.3 50.6 11.87 0.467
22:30 1020 30.12 849 25.07 11.5 52.7 92 10.3 50.6 11.82 0.465
22:31 1020 30.12 849 25.07 11.5 52.6 93 10.3 50.5 11.85 0.467
22:32 1020 30.12 849 25.07 11.5 52.6 93 10.3 50.5 11.8 0.465
22:33 1020 30.12 849 25.07 11.5 52.6 93 10.3 50.5 11.76 0.463
22:34 1020 30.12 849 25.07 11.4 52.6 92 10.3 50.5 11.78 0.464
22:35 1020 30.12 849 25.07 11.5 52.6 92 10.3 50.5 11.8 0.465
22:36 1020 30.12 849 25.07 11.4 52.5 93 10.2 50.4 11.74 0.462
22:37 1020 30.12 849 25.07 11.4 52.5 93 10.2 50.4 11.72 0.461
22:38 1020 30.12 849 25.07 11.5 52.6 92 10.3 50.5 11.79 0.464
22:39 1020 30.12 849 25.07 11.5 52.7 92 10.3 50.5 11.82 0.465
22:40 1020 30.12 849 25.07 11.5 52.7 92 10.3 50.5 11.82 0.465
22:41 1020 30.12 849 25.07 11.5 52.6 92 10.3 50.5 11.78 0.464
22:42 1020 30.12 849 25.07 11.5 52.6 92 10.2 50.4 11.79 0.464
22:43 1020 30.12 849 25.07 11.5 52.7 92 10.2 50.4 11.84 0.466
22:44 1020 30.12 849 25.07 11.5 52.8 92 10.3 50.5 11.84 0.466
22:45 1020 30.12 849 25.07 11.5 52.7 92 10.2 50.4 11.83 0.466
22:46 1020 30.12 849 25.07 11.5 52.7 92 10.2 50.4 11.84 0.466
22:47 1020 30.12 849 25.07 11.5 52.7 92 10.2 50.3 11.81 0.465
22:48 1020 30.12 849 25.07 11.6 52.8 92 10.2 50.4 11.84 0.466
22:49 1020 30.12 849 25.07 11.5 52.7 92 10.2 50.4 11.82 0.465
22:50 1020 30.12 849 25.07 11.6 52.8 91 10.2 50.4 11.86 0.467
22:51 1020 30.12 849 25.07 11.6 52.8 91 10.2 50.4 11.87 0.467
22:52 1020 30.12 849 25.07 11.6 52.8 92 10.2 50.4 11.8 0.465
22:53 1020 30.12 849 25.07 11.5 52.8 92 10.2 50.4 11.87 0.467
22:54 1020 30.12 849 25.07 11.5 52.7 92 10.2 50.4 11.84 0.466
22:55 1020 30.12 849 25.07 11.5 52.6 92 10.2 50.3 11.82 0.465
22:56 1020 30.12 849 25.07 11.5 52.6 92 10.2 50.4 11.83 0.466
22:57 1020 30.12 849 25.07 11.4 52.6 92 10.2 50.4 11.8 0.465
22:58 1020 30.12 849 25.07 11.4 52.6 92 10.2 50.4 11.77 0.463
22:59 1020 30.12 849 25.07 11.4 52.6 92 10.2 50.4 11.76 0.463
23:00 1020 30.12 849 25.07 11.4 52.6 92 10.2 50.4 11.8 0.465
23:01 1020 30.12 849 25.07 11.5 52.6 92 10.2 50.4 11.79 0.464
23:02 1020 30.12 849 25.07 11.5 52.6 92 10.2 50.3 11.76 0.463
23:03 1020 30.12 849 25.07 11.5 52.6 92 10.2 50.4 11.78 0.464
23:04 1020 30.12 849 25.07 11.5 52.7 92 10.3 50.5 11.83 0.466
23:05 1020 30.12 849 25.07 11.5 52.6 92 10.2 50.4 11.8 0.465
23:06 1020 30.12 849 25.07 11.5 52.6 92 10.2 50.4 11.81 0.465
23:07 1020 30.12 849 25.07 11.5 52.6 92 10.2 50.4 11.82 0.465
23:08 1020 30.12 849 25.07 11.4 52.6 92 10.2 50.4 11.79 0.464
23:09 1020 30.12 849 25.07 11.5 52.6 92 10.2 50.4 11.82 0.465
23:10 1020 30.12 849 25.07 11.5 52.6 92 10.2 50.4 11.78 0.464
23:11 1020 30.12 849 25.07 11.5 52.6 92 10.2 50.3 11.76 0.463
23:12 1020 30.12 849 25.07 11.5 52.6 92 10.2 50.4 11.77 0.463
23:13 1020 30.12 849 25.07 11.4 52.6 92 10.2 50.3 11.77 0.463
23:14 1020 30.12 849 25.07 11.4 52.6 92 10.1 50.3 11.76 0.463
23:15 1020 30.12 849 25.07 11.4 52.6 92 10.2 50.3 11.77 0.463
23:16 1020 30.12 849 25.07 11.4 52.6 92 10.2 50.3 11.77 0.463
23:17 1020 30.12 849 25.07 11.4 52.6 91 10.1 50.2 11.77 0.463
23:18 1020 30.12 849 25.07 11.5 52.6 91 10.1 50.2 11.75 0.463
23:19 1020 30.12 849 25.07 11.5 52.6 91 10.1 50.2 11.78 0.464
23:20 1020 30.12 849 25.07 11.5 52.6 91 10.1 50.1 11.77 0.463
23:21 1020 30.12 849 25.07 11.4 52.6 91 10 50 11.75 0.463
23:22 1020 30.12 849 25.07 11.5 52.6 91 10 50 11.77 0.463
23:23 1020 30.12 849 25.07 11.5 52.7 90 9.9 49.9 11.81 0.465
23:24 1020 30.12 849 25.07 11.6 52.8 90 10 50 11.86 0.467
23:25 1020 30.12 849 25.07 11.6 52.9 90 10 50.1 11.84 0.466
23:26 1020 30.12 849 25.07 11.6 52.8 90 10 50 11.88 0.468
23:27 1020 30.12 849 25.07 11.6 52.8 90 10 50 11.81 0.465
23:28 1020 30.12 849 25.07 11.5 52.7 90 9.9 49.9 11.79 0.464
23:29 1020 30.12 849 25.07 11.5 52.7 90 9.9 49.8 11.81 0.465
23:30 1020 30.12 849 25.07 11.5 52.7 90 9.9 49.8 11.82 0.465
23:31 1020 30.12 849 25.07 11.5 52.8 90 9.9 49.8 11.83 0.466
23:32 1020 30.12 849 25.07 11.6 52.8 90 9.9 49.9 11.84 0.466
23:33 1020 30.12 849 25.07 11.6 52.8 90 9.9 49.8 11.86 0.467
23:34 1020 30.12 849 25.07 11.6 52.8 90 9.9 49.9 11.86 0.467
23:35 1020 30.12 849 25.07 11.6 52.8 90 10 49.9 11.85 0.467
23:36 1020 30.12 849 25.07 11.5 52.8 90 9.9 49.8 11.85 0.467
23:37 1020 30.12 849 25.07 11.5 52.7 90 9.9 49.8 11.81 0.465
23:38 1020 30.12 849 25.07 11.5 52.7 90 9.9 49.8 11.8 0.465
23:39 1020 30.12 849 25.07 11.5 52.7 89 9.8 49.7 11.8 0.465
23:40 1020 30.12 849 25.07 11.6 52.8 89 9.9 49.8 11.88 0.468
23:41 1020 30.12 849 25.07 11.6 52.8 89 9.9 49.8 11.87 0.467
23:42 1020 30.12 849 25.07 11.6 52.8 89 9.8 49.7 11.87 0.467
23:43 1020 30.12 849 25.07 11.7 53 89 9.9 49.8 11.91 0.469
23:44 1020 30.12 849 25.07 11.7 53 89 9.9 49.7 11.95 0.47
23:45 1020 30.12 849 25.07 11.6 52.9 89 9.8 49.6 11.92 0.469
23:46 1020 30.12 849 25.07 11.7 53 89 9.9 49.8 11.95 0.47
23:47 1020 30.12 849 25.07 11.6 52.9 89 9.9 49.8 11.89 0.468
23:48 1020 30.12 849 25.07 11.6 52.9 89 9.9 49.9 11.89 0.468
23:49 1020 30.12 849 25.07 11.6 52.8 89 9.9 49.8 11.84 0.466
23:50 1020 30.12 849 25.07 11.5 52.8 89 9.9 49.8 11.81 0.465
23:51 1020 30.12 849 25.07 11.5 52.7 89 9.8 49.6 11.83 0.466
23:52 1020 30.12 849 25.07 11.6 52.8 89 9.8 49.7 11.83 0.466
23:53 1020 30.12 849 25.07 11.6 52.8 89 9.8 49.7 11.84 0.466
23:54 1020 30.12 849 25.07 11.5 52.8 89 9.8 49.7 11.84 0.466
23:55 1020 30.12 849 25.07 11.5 52.7 90 9.9 49.8 11.82 0.465
23:56 1020 30.12 849 25.07 11.5 52.7 90 9.9 49.8 11.74 0.462
23:57 1020 30.12 849 25.07 11.4 52.6 90 9.9 49.7 11.75 0.463
23:58 1020 30.12 849 25.07 11.4 52.6 90 9.8 49.7 11.72 0.461
23:59 1020 30.12 849 25.07 11.4 52.5 90 9.8 49.6 11.71 0.461
24:00 1020 30.12 849 25.07 11.5 52.6 90 9.8 49.7 11.7 0.461